Time,TemperatureF,DewpointF,PressureIn,WindDirection,WindDirectionDegrees,WindSpeedMPH,WindSpeedGustMPH,Humidity,HourlyPrecipIn,Conditions,Clouds,dailyrainin,SoftwareType,DateUTC
2013-02-01 00:00:00,30.7,27.3,30.00,WSW,248,0.0,0.0,87,0.00,CLR,,0.00,WeatherDisplay:10.37,2013-02-01 08:00:00,
2013-02-01 00:01:00,30.7,27.3,30.00,WSW,248,0.0,0.0,87,0.00,CLR,,0.00,WeatherDisplay:10.37,2013-02-01 08:01:00,
2013-02-01 00:02:00,30.7,27.3,30.00,WSW,248,0.0,0.0,87,0.00,CLR,,0.00,WeatherDisplay:10.37,2013-02-01 08:02:00,
2013-02-01 00:04:00,30.7,27.3,30.00,WSW,248,0.0,0.0,87,0.00,CLR,,0.00,WeatherDisplay:10.37,2013-02-01 08:04:00,
2013-02-01 00:05:00,30.7,27.3,30.00,WSW,248,0.0,0.0,87,0.00,CLR,,0.00,WeatherDisplay:10.37,2013-02-01 08:05:00,
2013-02-01 00:06:00,30.7,27.3,30.00,WSW,248,0.0,0.0,87,0.00,CLR,,0.00,WeatherDisplay:10.37,2013-02-01 08:06:00,
2013-02-01 00:07:00,30.7,27.3,30.00,WSW,248,0.0,0.0,87,0.00,CLR,,0.00,WeatherDisplay:10.37,2013-02-01 08:07:00,
2013-02-01 00:10:00,30.7,27.3,30.00,WSW,248,0.0,0.0,87,0.00,CLR,,0.00,WeatherDisplay:10.37,2013-02-01 08:10:00,
2013-02-01 00:11:00,30.7,27.3,30.00,WSW,248,0.0,0.0,87,0.00,CLR,,0.00,WeatherDisplay:10.37,2013-02-01 08:11:00,
2013-02-01 00:12:00,30.7,27.3,30.00,WSW,248,0.0,0.0,87,0.00,CLR,,0.00,WeatherDisplay:10.37,2013-02-01 08:12:00,
2013-02-01 00:15:00,30.7,27.3,30.00,WSW,248,0.0,0.0,87,0.00,CLR,,0.00,WeatherDisplay:10.37,2013-02-01 08:15:00,
2013-02-01 00:16:00,30.7,27.3,30.00,WSW,248,0.0,0.0,87,0.00,CLR,,0.00,WeatherDisplay:10.37,2013-02-01 08:16:00,
2013-02-01 00:17:00,30.7,27.3,30.00,WSW,248,0.0,0.0,87,0.00,CLR,,0.00,WeatherDisplay:10.37,2013-02-01 08:17:00,
2013-02-01 00:20:00,30.7,27.3,30.00,WSW,248,0.0,0.0,87,0.00,CLR,CLR,0.00,WeatherDisplay:10.37,2013-02-01 08:20:00,
2013-02-01 00:21:00,30.7,27.3,30.00,WSW,248,0.0,0.0,87,0.00,CLR,,0.00,WeatherDisplay:10.37,2013-02-01 08:21:00,
2013-02-01 00:23:00,30.7,27.3,30.00,WSW,248,0.0,0.0,87,0.00,CLR,,0.00,WeatherDisplay:10.37,2013-02-01 08:23:00,
2013-02-01 00:25:00,30.7,27.3,30.00,WSW,248,0.0,0.0,87,0.00,CLR,,0.00,WeatherDisplay:10.37,2013-02-01 08:25:00,
2013-02-01 00:26:00,30.7,27.3,30.00,WSW,248,0.0,0.0,87,0.00,CLR,,0.00,WeatherDisplay:10.37,2013-02-01 08:26:00,
2013-02-01 00:28:00,30.7,27.3,30.00,WSW,248,0.0,0.0,87,0.00,CLR,,0.00,WeatherDisplay:10.37,2013-02-01 08:28:00,
2013-02-01 00:30:00,30.7,27.3,30.00,WSW,248,0.0,0.0,87,0.00,CLR,,0.00,WeatherDisplay:10.37,2013-02-01 08:30:00,
2013-02-01 00:31:00,30.7,27.3,30.00,WSW,248,0.0,0.0,87,0.00,CLR,,0.00,WeatherDisplay:10.37,2013-02-01 08:31:00,
2013-02-01 00:34:00,30.7,27.3,30.00,WSW,248,0.0,0.0,87,0.00,CLR,,0.00,WeatherDisplay:10.37,2013-02-01 08:34:00,
2013-02-01 00:35:00,30.7,27.3,30.00,WSW,248,0.0,0.0,87,0.00,CLR,,0.00,WeatherDisplay:10.37,2013-02-01 08:35:00,
2013-02-01 00:36:00,30.7,27.3,30.00,WSW,248,0.0,0.0,87,0.00,CLR,,0.00,WeatherDisplay:10.37,2013-02-01 08:36:00,
2013-02-01 00:37:00,30.7,27.3,30.00,WSW,248,0.0,0.0,87,0.00,CLR,,0.00,WeatherDisplay:10.37,2013-02-01 08:37:00,
2013-02-01 00:39:00,30.7,27.3,30.00,WSW,248,0.0,0.0,87,0.00,CLR,,0.00,WeatherDisplay:10.37,2013-02-01 08:39:00,
2013-02-01 00:41:00,30.7,27.3,30.00,WSW,248,0.0,0.0,87,0.00,CLR,,0.00,WeatherDisplay:10.37,2013-02-01 08:41:00,
2013-02-01 00:42:00,30.7,27.3,30.00,WSW,248,0.0,0.0,87,0.00,CLR,,0.00,WeatherDisplay:10.37,2013-02-01 08:42:00,
2013-02-01 00:45:00,30.7,27.3,30.00,WSW,248,0.0,0.0,87,0.00,CLR,,0.00,WeatherDisplay:10.37,2013-02-01 08:45:00,
2013-02-01 00:46:00,30.7,27.3,30.00,WSW,248,0.0,0.0,87,0.00,CLR,,0.00,WeatherDisplay:10.37,2013-02-01 08:46:00,
2013-02-01 00:47:00,30.7,27.3,30.00,WSW,248,0.0,0.0,87,0.00,CLR,,0.00,WeatherDisplay:10.37,2013-02-01 08:47:00,
2013-02-01 00:50:00,30.7,27.3,30.00,WSW,248,0.0,0.0,87,0.00,CLR,,0.00,WeatherDisplay:10.37,2013-02-01 08:50:00,
2013-02-01 00:51:00,30.7,27.3,30.00,WSW,248,0.0,0.0,87,0.00,CLR,,0.00,WeatherDisplay:10.37,2013-02-01 08:51:00,
2013-02-01 00:52:00,30.7,27.3,30.00,WSW,248,0.0,0.0,87,0.00,CLR,,0.00,WeatherDisplay:10.37,2013-02-01 08:52:00,
2013-02-01 00:55:00,30.7,27.3,30.00,WSW,248,0.0,0.0,87,0.00,CLR,,0.00,WeatherDisplay:10.37,2013-02-01 08:55:00,
2013-02-01 00:56:00,30.7,27.3,30.00,WSW,248,0.0,0.0,87,0.00,CLR,,0.00,WeatherDisplay:10.37,2013-02-01 08:56:00,
2013-02-01 00:57:00,30.7,27.3,30.00,WSW,248,0.0,0.0,87,0.00,CLR,,0.00,WeatherDisplay:10.37,2013-02-01 08:57:00,
2013-02-01 01:00:00,30.7,27.3,30.00,WSW,248,0.0,0.0,87,0.00,CLR,,0.00,WeatherDisplay:10.37,2013-02-01 09:00:00,
2013-02-01 01:01:00,30.7,27.3,30.00,WSW,248,0.0,0.0,87,0.00,CLR,,0.00,WeatherDisplay:10.37,2013-02-01 09:01:00,
2013-02-01 01:02:00,30.7,27.3,30.00,WSW,248,0.0,0.0,87,0.00,CLR,,0.00,WeatherDisplay:10.37,2013-02-01 09:02:00,
2013-02-01 01:03:00,30.7,27.3,30.00,WSW,248,0.0,0.0,87,0.00,CLR,,0.00,WeatherDisplay:10.37,2013-02-01 09:03:00,
2013-02-01 01:05:00,30.7,27.3,30.00,WSW,248,0.0,0.0,87,0.00,CLR,,0.00,WeatherDisplay:10.37,2013-02-01 09:05:00,
2013-02-01 01:07:00,30.7,27.3,30.00,WSW,248,0.0,0.0,87,0.00,CLR,,0.00,WeatherDisplay:10.37,2013-02-01 09:07:00,
2013-02-01 01:08:00,30.7,27.3,30.00,WSW,248,0.0,0.0,87,0.00,CLR,,0.00,WeatherDisplay:10.37,2013-02-01 09:08:00,
2013-02-01 01:10:00,30.7,27.3,30.00,WSW,248,0.0,0.0,87,0.00,CLR,,0.00,WeatherDisplay:10.37,2013-02-01 09:10:00,
2013-02-01 01:49:00,30.7,27.3,30.00,WSW,248,0.0,0.0,87,0.00,CLR,,0.00,WeatherDisplay:10.37,2013-02-01 09:49:00,
2013-02-01 01:58:00,30.7,27.3,30.00,WSW,248,0.0,0.0,87,0.00,CLR,,0.00,WeatherDisplay:10.37,2013-02-01 09:58:00,
2013-02-01 01:59:00,30.7,27.3,30.00,WSW,248,0.0,0.0,87,0.00,CLR,,0.00,WeatherDisplay:10.37,2013-02-01 09:59:00,
2013-02-01 02:00:00,30.7,27.3,30.00,WSW,248,0.0,0.0,87,0.00,CLR,,0.00,WeatherDisplay:10.37,2013-02-01 10:00:00,
2013-02-01 02:03:00,30.7,27.3,30.00,WSW,248,0.0,0.0,87,0.00,CLR,,0.00,WeatherDisplay:10.37,2013-02-01 10:03:00,
2013-02-01 02:04:00,30.7,27.3,30.00,WSW,248,0.0,0.0,87,0.00,CLR,,0.00,WeatherDisplay:10.37,2013-02-01 10:04:00,
2013-02-01 02:05:00,30.7,27.3,30.00,WSW,248,0.0,0.0,87,0.00,CLR,,0.00,WeatherDisplay:10.37,2013-02-01 10:05:00,
2013-02-01 02:08:00,30.7,27.3,30.00,WSW,248,0.0,0.0,87,0.00,CLR,,0.00,WeatherDisplay:10.37,2013-02-01 10:08:00,
2013-02-01 04:05:00,27.1,25.4,29.94,NE,45,0.5,1.1,93,0.00,CLR,,0.00,WeatherDisplay:10.37,2013-02-01 12:05:00,
2013-02-01 04:10:00,27.5,25.7,29.94,SW,225,1.1,3.5,93,0.00,CLR,,0.00,WeatherDisplay:10.37,2013-02-01 12:10:00,
2013-02-01 04:11:00,27.5,25.7,29.94,SW,225,1.1,3.6,93,0.00,CLR,,0.00,WeatherDisplay:10.37,2013-02-01 12:11:00,
2013-02-01 04:15:00,27.5,25.7,29.94,NW,315,1.4,1.5,93,0.00,CLR,,0.00,WeatherDisplay:10.37,2013-02-01 12:15:00,
2013-02-01 04:16:00,27.5,25.7,29.94,NNE,22,1.5,1.5,93,0.00,CLR,,0.00,WeatherDisplay:10.37,2013-02-01 12:16:00,
2013-02-01 04:20:00,27.3,25.6,29.94,SE,135,1.1,2.3,93,0.00,CLR,,0.00,WeatherDisplay:10.37,2013-02-01 12:20:00,
2013-02-01 04:21:00,27.3,25.6,29.94,SE,135,1.1,2.3,93,0.00,CLR,,0.00,WeatherDisplay:10.37,2013-02-01 12:21:00,
2013-02-01 04:25:00,27.1,25.4,29.94,ESE,112,0.3,1.1,93,0.00,CLR,,0.00,WeatherDisplay:10.37,2013-02-01 12:25:00,
2013-02-01 04:26:00,27.1,25.4,29.94,ESE,112,0.3,1.1,93,0.00,CLR,,0.00,WeatherDisplay:10.37,2013-02-01 12:26:00,
2013-02-01 04:30:00,27.0,24.9,29.94,SSE,158,0.1,0.0,92,0.00,CLR,,0.00,WeatherDisplay:10.37,2013-02-01 12:30:00,
2013-02-01 04:31:00,27.0,24.9,29.94,SSE,158,0.1,0.0,92,0.00,CLR,,0.00,WeatherDisplay:10.37,2013-02-01 12:31:00,
2013-02-01 04:35:00,26.8,24.8,29.94,NE,45,0.1,0.0,92,0.00,CLR,,0.00,WeatherDisplay:10.37,2013-02-01 12:35:00,
2013-02-01 04:36:00,26.8,24.8,29.94,NE,45,0.1,1.1,92,0.00,CLR,,0.00,WeatherDisplay:10.37,2013-02-01 12:36:00,
2013-02-01 04:40:00,27.0,24.9,29.94,SE,135,0.2,1.1,92,0.00,CLR,,0.00,WeatherDisplay:10.37,2013-02-01 12:40:00,
2013-02-01 04:41:00,27.0,24.9,29.94,SE,135,0.2,0.0,92,0.00,CLR,,0.00,WeatherDisplay:10.37,2013-02-01 12:41:00,
2013-02-01 04:45:00,26.8,24.8,29.94,South,180,0.2,2.3,92,0.00,CLR,,0.00,WeatherDisplay:10.37,2013-02-01 12:45:00,
2013-02-01 04:46:00,26.8,24.8,29.94,South,180,0.2,2.3,92,0.00,CLR,,0.00,WeatherDisplay:10.37,2013-02-01 12:46:00,
2013-02-01 04:50:00,27.0,24.9,29.94,NW,315,0.3,1.4,92,0.00,CLR,,0.00,WeatherDisplay:10.37,2013-02-01 12:50:00,
2013-02-01 04:51:00,27.0,24.9,29.94,NW,315,0.3,1.1,92,0.00,CLR,,0.00,WeatherDisplay:10.37,2013-02-01 12:51:00,
2013-02-01 04:55:00,27.1,25.4,29.94,SW,225,0.3,0.0,93,0.00,CLR,,0.00,WeatherDisplay:10.37,2013-02-01 12:55:00,
2013-02-01 04:56:00,27.1,25.4,29.94,SW,225,0.3,1.1,93,0.00,CLR,,0.00,WeatherDisplay:10.37,2013-02-01 12:56:00,
2013-02-01 05:01:00,27.3,25.6,29.94,NW,315,0.5,0.0,93,0.00,CLR,,0.00,WeatherDisplay:10.37,2013-02-01 13:01:00,
2013-02-01 05:06:00,27.3,25.6,29.93,SSE,158,0.9,2.3,93,0.00,CLR,,0.00,WeatherDisplay:10.37,2013-02-01 13:06:00,
2013-02-01 05:07:00,27.3,25.6,29.93,SSE,158,0.9,2.3,93,0.00,CLR,,0.00,WeatherDisplay:10.37,2013-02-01 13:07:00,
2013-02-01 05:11:00,27.1,25.4,29.93,SE,135,1.0,1.1,93,0.00,CLR,,0.00,WeatherDisplay:10.37,2013-02-01 13:11:00,
2013-02-01 05:12:00,27.0,25.2,29.93,SE,135,1.0,1.1,93,0.00,CLR,,0.00,WeatherDisplay:10.37,2013-02-01 13:12:00,
2013-02-01 06:43:00,26.8,25.0,29.93,SE,135,0.9,2.3,93,0.00,CLR,,0.00,WeatherDisplay:10.37,2013-02-01 14:43:00,
2013-02-01 06:48:00,26.8,25.0,29.93,SE,135,0.9,2.3,93,0.00,CLR,,0.00,WeatherDisplay:10.37,2013-02-01 14:48:00,
2013-02-01 06:53:00,26.8,25.0,29.93,SE,135,0.9,2.3,93,0.00,CLR,,0.00,WeatherDisplay:10.37,2013-02-01 14:53:00,
2013-02-01 06:54:00,26.8,25.0,29.93,SE,135,0.9,2.3,93,0.00,CLR,,0.00,WeatherDisplay:10.37,2013-02-01 14:54:00,
2013-02-01 06:58:00,26.8,25.0,29.93,SE,135,0.9,2.3,93,0.00,CLR,,0.00,WeatherDisplay:10.37,2013-02-01 14:58:00,
2013-02-01 06:59:00,26.8,25.0,29.93,SE,135,0.9,2.3,93,0.00,CLR,,0.00,WeatherDisplay:10.37,2013-02-01 14:59:00,
2013-02-01 07:03:00,26.8,25.0,29.93,SE,135,0.9,2.3,93,0.00,CLR,,0.00,WeatherDisplay:10.37,2013-02-01 15:03:00,
2013-02-01 07:04:00,26.8,25.0,29.93,SE,135,0.9,2.3,93,0.00,CLR,,0.00,WeatherDisplay:10.37,2013-02-01 15:04:00,
2013-02-01 07:08:00,26.8,25.0,29.93,SE,135,0.9,2.3,93,0.00,CLR,,0.00,WeatherDisplay:10.37,2013-02-01 15:08:00,
2013-02-01 07:09:00,26.8,25.0,29.93,SE,135,0.9,2.3,93,0.00,CLR,,0.00,WeatherDisplay:10.37,2013-02-01 15:09:00,
2013-02-01 07:13:00,26.8,25.0,29.93,SE,135,0.9,2.3,93,0.00,CLR,,0.00,WeatherDisplay:10.37,2013-02-01 15:13:00,
2013-02-01 07:14:00,26.8,25.0,29.93,SE,135,0.9,2.3,93,0.00,CLR,,0.00,WeatherDisplay:10.37,2013-02-01 15:14:00,
2013-02-01 07:18:00,26.8,25.0,29.93,SE,135,0.9,2.3,93,0.00,CLR,,0.00,WeatherDisplay:10.37,2013-02-01 15:18:00,
2013-02-01 07:19:00,26.8,25.0,29.93,SE,135,0.9,2.3,93,0.00,CLR,,0.00,WeatherDisplay:10.37,2013-02-01 15:19:00,
2013-02-01 07:24:00,26.8,25.0,29.93,SE,135,0.9,2.3,93,0.00,CLR,,0.00,WeatherDisplay:10.37,2013-02-01 15:24:00,
2013-02-01 07:29:00,26.8,25.0,29.93,SE,135,0.9,2.3,93,0.00,CLR,,0.00,WeatherDisplay:10.37,2013-02-01 15:29:00,
2013-02-01 07:30:00,26.8,25.0,29.93,SE,135,0.9,2.3,93,0.00,CLR,,0.00,WeatherDisplay:10.37,2013-02-01 15:30:00,
2013-02-01 07:34:00,26.8,25.0,29.93,SE,135,0.9,2.3,93,0.00,CLR,,0.00,WeatherDisplay:10.37,2013-02-01 15:34:00,
2013-02-01 07:35:00,26.8,25.0,29.93,SE,135,0.9,2.3,93,0.00,CLR,,0.00,WeatherDisplay:10.37,2013-02-01 15:35:00,
2013-02-01 07:39:00,26.8,25.0,29.93,SE,135,0.9,2.3,93,0.00,CLR,,0.00,WeatherDisplay:10.37,2013-02-01 15:39:00,
2013-02-01 07:40:00,26.8,25.0,29.93,SE,135,0.9,2.3,93,0.00,CLR,,0.00,WeatherDisplay:10.37,2013-02-01 15:40:00,
2013-02-01 07:44:00,26.8,25.0,29.93,SE,135,0.9,2.3,93,0.00,CLR,,0.00,WeatherDisplay:10.37,2013-02-01 15:44:00,
2013-02-01 07:45:00,26.8,25.0,29.93,SE,135,0.9,2.3,93,0.00,CLR,,0.00,WeatherDisplay:10.37,2013-02-01 15:45:00,
2013-02-01 07:49:00,26.8,25.0,29.93,SE,135,0.9,2.3,93,0.00,CLR,,0.00,WeatherDisplay:10.37,2013-02-01 15:49:00,
2013-02-01 07:50:00,26.8,25.0,29.93,SE,135,0.9,2.3,93,0.00,CLR,,0.00,WeatherDisplay:10.37,2013-02-01 15:50:00,
2013-02-01 07:54:00,26.8,25.0,29.93,SE,135,0.9,2.3,93,0.00,CLR,,0.00,WeatherDisplay:10.37,2013-02-01 15:54:00,
2013-02-01 07:55:00,26.8,25.0,29.93,SE,135,0.9,2.3,93,0.00,CLR,,0.00,WeatherDisplay:10.37,2013-02-01 15:55:00,
2013-02-01 07:59:00,26.8,25.0,29.93,SE,135,0.9,2.3,93,0.00,CLR,,0.00,WeatherDisplay:10.37,2013-02-01 15:59:00,
2013-02-01 08:00:00,26.8,25.0,29.93,SE,135,0.9,2.3,93,0.00,CLR,,0.00,WeatherDisplay:10.37,2013-02-01 16:00:00,
2013-02-01 08:04:00,26.8,25.0,29.93,SE,135,0.9,2.3,93,0.00,CLR,,0.00,WeatherDisplay:10.37,2013-02-01 16:04:00,
2013-02-01 08:05:00,26.8,25.0,29.93,SE,135,0.9,2.3,93,0.00,CLR,,0.00,WeatherDisplay:10.37,2013-02-01 16:05:00,
2013-02-01 08:06:00,26.8,25.0,29.93,SE,135,0.9,2.3,93,0.00,CLR,,0.00,WeatherDisplay:10.37,2013-02-01 16:06:00,
2013-02-01 08:09:00,26.8,25.0,29.93,SE,135,0.9,2.3,93,0.00,CLR,,0.00,WeatherDisplay:10.37,2013-02-01 16:09:00,
2013-02-01 08:10:00,26.8,25.0,29.93,SE,135,0.9,2.3,93,0.00,CLR,,0.00,WeatherDisplay:10.37,2013-02-01 16:10:00,
2013-02-01 08:11:00,26.8,25.0,29.93,SE,135,0.9,2.3,93,0.00,CLR,,0.00,WeatherDisplay:10.37,2013-02-01 16:11:00,
2013-02-01 08:15:00,26.8,25.0,29.93,SE,135,0.9,2.3,93,0.00,CLR,,0.00,WeatherDisplay:10.37,2013-02-01 16:15:00,
2013-02-01 08:16:00,26.8,25.0,29.93,SE,135,0.9,2.3,93,0.00,CLR,,0.00,WeatherDisplay:10.37,2013-02-01 16:16:00,
2013-02-01 08:20:00,26.8,25.0,29.93,SE,135,0.9,2.3,93,0.00,CLR,,0.00,WeatherDisplay:10.37,2013-02-01 16:20:00,
2013-02-01 08:21:00,26.8,25.0,29.93,SE,135,0.9,2.3,93,0.00,CLR,,0.00,WeatherDisplay:10.37,2013-02-01 16:21:00,
2013-02-01 08:25:00,26.8,25.0,29.93,SE,135,0.9,2.3,93,0.00,CLR,,0.00,WeatherDisplay:10.37,2013-02-01 16:25:00,
2013-02-01 08:26:00,26.8,25.0,29.93,SE,135,0.9,2.3,93,0.00,CLR,,0.00,WeatherDisplay:10.37,2013-02-01 16:26:00,
2013-02-01 08:31:00,26.8,25.0,29.93,SE,135,0.9,2.3,93,0.00,CLR,,0.00,WeatherDisplay:10.37,2013-02-01 16:31:00,
2013-02-01 08:36:00,26.8,25.0,29.93,SE,135,0.9,2.3,93,0.00,CLR,,0.00,WeatherDisplay:10.37,2013-02-01 16:36:00,
2013-02-01 08:37:00,26.8,25.0,29.93,SE,135,0.9,2.3,93,0.00,CLR,,0.00,WeatherDisplay:10.37,2013-02-01 16:37:00,
2013-02-01 08:41:00,26.8,25.0,29.93,SE,135,0.9,2.3,93,0.00,CLR,,0.00,WeatherDisplay:10.37,2013-02-01 16:41:00,
2013-02-01 08:42:00,26.8,25.0,29.93,SE,135,0.9,2.3,93,0.00,CLR,,0.00,WeatherDisplay:10.37,2013-02-01 16:42:00,
2013-02-01 08:45:00,25.0,22.2,30.04,NNE,17,0.0,0.0,89,0.00,CLR,CLR,0.00,WeatherDisplay:10.37,2013-02-01 16:45:00,
2013-02-01 08:46:00,26.8,25.0,29.93,SE,135,0.9,2.3,93,0.00,CLR,,0.00,WeatherDisplay:10.37,2013-02-01 16:46:00,
2013-02-01 08:47:00,26.8,25.0,29.93,SE,135,0.9,2.3,93,0.00,CLR,,0.00,WeatherDisplay:10.37,2013-02-01 16:47:00,
2013-02-01 08:50:00,24.8,22.0,30.04,North,7,0.0,0.0,89,0.00,CLR,CLR,0.00,WeatherDisplay:10.37,2013-02-01 16:50:00,
2013-02-01 08:51:00,26.8,25.0,29.93,SE,135,0.9,2.3,93,0.00,CLR,,0.00,WeatherDisplay:10.37,2013-02-01 16:51:00,
2013-02-01 08:52:00,26.8,25.0,29.93,SE,135,0.9,2.3,93,0.00,CLR,,0.00,WeatherDisplay:10.37,2013-02-01 16:52:00,
2013-02-01 08:55:00,24.6,21.6,30.04,North,359,0.0,0.0,88,0.00,CLR,CLR,0.00,WeatherDisplay:10.37,2013-02-01 16:55:00,
2013-02-01 08:56:00,26.8,25.0,29.93,SE,135,0.9,2.3,93,0.00,CLR,,0.00,WeatherDisplay:10.37,2013-02-01 16:56:00,
2013-02-01 08:57:00,26.8,25.0,29.93,SE,135,0.9,2.3,93,0.00,CLR,,0.00,WeatherDisplay:10.37,2013-02-01 16:57:00,
2013-02-01 09:02:00,26.8,25.0,29.93,SE,135,0.9,2.3,93,0.00,CLR,,0.00,WeatherDisplay:10.37,2013-02-01 17:02:00,
2013-02-01 09:03:00,26.8,25.0,29.93,SE,135,0.9,2.3,93,0.00,CLR,,0.00,WeatherDisplay:10.37,2013-02-01 17:03:00,
2013-02-01 09:05:00,25.0,22.2,30.04,NNW,330,0.0,0.0,89,0.00,CLR,CLR,0.00,WeatherDisplay:10.37,2013-02-01 17:05:00,
2013-02-01 09:07:00,26.8,25.0,29.93,SE,135,0.9,2.3,93,0.00,CLR,,0.00,WeatherDisplay:10.37,2013-02-01 17:07:00,
2013-02-01 09:08:00,26.8,25.0,29.93,SE,135,0.9,2.3,93,0.00,CLR,,0.00,WeatherDisplay:10.37,2013-02-01 17:08:00,
2013-02-01 09:10:00,25.0,22.2,30.04,NNE,26,0.0,0.0,89,0.00,CLR,CLR,0.00,WeatherDisplay:10.37,2013-02-01 17:10:00,
2013-02-01 09:12:00,26.8,25.0,29.93,SE,135,0.9,2.3,93,0.00,CLR,,0.00,WeatherDisplay:10.37,2013-02-01 17:12:00,
2013-02-01 09:13:00,26.8,25.0,29.93,SE,135,0.9,2.3,93,0.00,CLR,,0.00,WeatherDisplay:10.37,2013-02-01 17:13:00,
2013-02-01 09:15:00,24.8,22.3,30.04,ENE,57,0.0,0.0,90,0.00,CLR,CLR,0.00,WeatherDisplay:10.37,2013-02-01 17:15:00,
2013-02-01 09:17:00,26.8,25.0,29.93,SE,135,0.9,2.3,93,0.00,CLR,,0.00,WeatherDisplay:10.37,2013-02-01 17:17:00,
2013-02-01 09:18:00,26.8,25.0,29.93,SE,135,0.9,2.3,93,0.00,CLR,,0.00,WeatherDisplay:10.37,2013-02-01 17:18:00,
2013-02-01 09:20:00,24.8,22.3,30.04,ENE,74,0.0,0.0,90,0.00,CLR,CLR,0.00,WeatherDisplay:10.37,2013-02-01 17:20:00,
2013-02-01 09:22:00,26.8,25.0,29.93,SE,135,0.9,2.3,93,0.00,CLR,,0.00,WeatherDisplay:10.37,2013-02-01 17:22:00,
2013-02-01 09:23:00,26.8,25.0,29.93,SE,135,0.9,2.3,93,0.00,CLR,,0.00,WeatherDisplay:10.37,2013-02-01 17:23:00,
2013-02-01 09:24:00,26.8,25.0,29.93,SE,135,0.9,2.3,93,0.00,CLR,,0.00,WeatherDisplay:10.37,2013-02-01 17:24:00,
2013-02-01 09:25:00,24.8,22.3,30.03,NNE,33,0.0,0.0,90,0.00,CLR,CLR,0.00,WeatherDisplay:10.37,2013-02-01 17:25:00,
2013-02-01 09:27:00,26.8,25.0,29.93,SE,135,0.9,2.3,93,0.00,CLR,,0.00,WeatherDisplay:10.37,2013-02-01 17:27:00,
2013-02-01 09:28:00,26.8,25.0,29.93,SE,135,0.9,2.3,93,0.00,CLR,,0.00,WeatherDisplay:10.37,2013-02-01 17:28:00,
2013-02-01 09:29:00,26.8,25.0,29.93,SE,135,0.9,2.3,93,0.00,CLR,,0.00,WeatherDisplay:10.37,2013-02-01 17:29:00,
2013-02-01 09:32:00,26.8,25.0,29.93,SE,135,0.9,2.3,93,0.00,CLR,,0.00,WeatherDisplay:10.37,2013-02-01 17:32:00,
2013-02-01 09:33:00,26.8,25.0,29.93,SE,135,0.9,2.3,93,0.00,CLR,,0.00,WeatherDisplay:10.37,2013-02-01 17:33:00,
2013-02-01 09:34:00,26.8,25.0,29.93,SE,135,0.9,2.3,93,0.00,CLR,,0.00,WeatherDisplay:10.37,2013-02-01 17:34:00,
2013-02-01 09:35:00,24.4,21.9,30.03,NNE,28,0.0,0.0,90,0.00,CLR,CLR,0.00,WeatherDisplay:10.37,2013-02-01 17:35:00,
2013-02-01 09:38:00,26.8,25.0,29.93,SE,135,0.9,2.3,93,0.00,CLR,,0.00,WeatherDisplay:10.37,2013-02-01 17:38:00,
2013-02-01 09:39:00,26.8,25.0,29.93,SE,135,0.9,2.3,93,0.00,CLR,,0.00,WeatherDisplay:10.37,2013-02-01 17:39:00,
2013-02-01 09:43:00,26.8,25.0,29.93,SE,135,0.9,2.3,93,0.00,CLR,,0.00,WeatherDisplay:10.37,2013-02-01 17:43:00,
2013-02-01 09:44:00,26.8,25.0,29.93,SE,135,0.9,2.3,93,0.00,CLR,,0.00,WeatherDisplay:10.37,2013-02-01 17:44:00,
2013-02-01 09:45:00,24.3,21.8,30.03,WNW,288,0.0,0.0,90,0.00,CLR,CLR,0.00,WeatherDisplay:10.37,2013-02-01 17:45:00,
2013-02-01 09:48:00,26.8,25.0,29.93,SE,135,0.9,2.3,93,0.00,CLR,,0.00,WeatherDisplay:10.37,2013-02-01 17:48:00,
2013-02-01 09:49:00,26.8,25.0,29.93,SE,135,0.9,2.3,93,0.00,CLR,,0.00,WeatherDisplay:10.37,2013-02-01 17:49:00,
2013-02-01 09:50:00,24.3,21.8,30.03,NW,307,0.0,0.0,90,0.00,CLR,CLR,0.00,WeatherDisplay:10.37,2013-02-01 17:50:00,
2013-02-01 09:53:00,26.8,25.0,29.93,SE,135,0.9,2.3,93,0.00,CLR,,0.00,WeatherDisplay:10.37,2013-02-01 17:53:00,
2013-02-01 09:54:00,26.8,25.0,29.93,SE,135,0.9,2.3,93,0.00,CLR,,0.00,WeatherDisplay:10.37,2013-02-01 17:54:00,
2013-02-01 09:55:00,24.3,21.8,30.03,North,349,0.0,0.0,90,0.00,CLR,CLR,0.00,WeatherDisplay:10.37,2013-02-01 17:55:00,
2013-02-01 09:58:00,26.8,25.0,29.93,SE,135,0.9,2.3,93,0.00,CLR,,0.00,WeatherDisplay:10.37,2013-02-01 17:58:00,
2013-02-01 09:59:00,26.8,25.0,29.93,SE,135,0.9,2.3,93,0.00,CLR,,0.00,WeatherDisplay:10.37,2013-02-01 17:59:00,
2013-02-01 10:00:00,26.8,25.0,29.93,SE,135,0.9,2.3,93,0.00,CLR,,0.00,WeatherDisplay:10.37,2013-02-01 18:00:00,
2013-02-01 10:03:00,26.8,25.0,29.93,SE,135,0.9,2.3,93,0.00,CLR,,0.00,WeatherDisplay:10.37,2013-02-01 18:03:00,
2013-02-01 10:04:00,26.8,25.0,29.93,SE,135,0.9,2.3,93,0.00,CLR,,0.00,WeatherDisplay:10.37,2013-02-01 18:04:00,
2013-02-01 10:05:00,26.8,25.0,29.93,SE,135,0.9,2.3,93,0.00,CLR,,0.00,WeatherDisplay:10.37,2013-02-01 18:05:00,
2013-02-01 10:09:00,26.8,25.0,29.93,SE,135,0.9,2.3,93,0.00,CLR,,0.00,WeatherDisplay:10.37,2013-02-01 18:09:00,
2013-02-01 10:10:00,26.8,25.0,29.93,SE,135,0.9,2.3,93,0.00,CLR,,0.00,WeatherDisplay:10.37,2013-02-01 18:10:00,
2013-02-01 10:14:00,26.8,25.0,29.93,SE,135,0.9,2.3,93,0.00,CLR,,0.00,WeatherDisplay:10.37,2013-02-01 18:14:00,
2013-02-01 10:15:00,26.8,25.0,29.93,SE,135,0.9,2.3,93,0.00,CLR,,0.00,WeatherDisplay:10.37,2013-02-01 18:15:00,
2013-02-01 10:19:00,26.8,25.0,29.93,SE,135,0.9,2.3,93,0.00,CLR,,0.00,WeatherDisplay:10.37,2013-02-01 18:19:00,
2013-02-01 10:20:00,26.8,25.0,29.93,SE,135,0.9,2.3,93,0.00,CLR,,0.00,WeatherDisplay:10.37,2013-02-01 18:20:00,
2013-02-01 10:24:00,26.8,25.0,29.93,SE,135,0.9,2.3,93,0.00,CLR,,0.00,WeatherDisplay:10.37,2013-02-01 18:24:00,
2013-02-01 10:25:00,26.8,25.0,29.93,SE,135,0.9,2.3,93,0.00,CLR,,0.00,WeatherDisplay:10.37,2013-02-01 18:25:00,
2013-02-01 10:29:00,26.8,25.0,29.93,SE,135,0.9,2.3,93,0.00,CLR,,0.00,WeatherDisplay:10.37,2013-02-01 18:29:00,
2013-02-01 10:30:00,26.8,25.0,29.93,SE,135,1.0,2.0,93,0.00,CLR,CLR,0.00,WeatherDisplay:10.37,2013-02-01 18:30:00,
2013-02-01 10:34:00,26.8,25.0,29.93,SE,135,0.9,2.3,93,0.00,CLR,,0.00,WeatherDisplay:10.37,2013-02-01 18:34:00,
2013-02-01 10:35:00,26.8,25.0,29.93,SE,135,0.9,2.3,93,0.00,CLR,,0.00,WeatherDisplay:10.37,2013-02-01 18:35:00,
2013-02-01 10:36:00,26.8,25.0,29.93,SE,135,0.9,2.3,93,0.00,CLR,,0.00,WeatherDisplay:10.37,2013-02-01 18:36:00,
2013-02-01 10:40:00,23.9,21.7,30.03,West,270,0.0,0.0,91,0.00,CLR,CLR,0.00,WeatherDisplay:10.37,2013-02-01 18:40:00,
2013-02-01 10:45:00,23.7,21.5,30.03,NW,320,0.0,0.0,91,0.00,CLR,CLR,0.00,WeatherDisplay:10.37,2013-02-01 18:45:00,
2013-02-01 10:50:00,37.0,27.5,29.95,SE,135,0.4,2.3,68,0.00,CLR,,0.00,WeatherDisplay:10.37,2013-02-01 18:50:00,
2013-02-01 10:55:00,42.8,31.1,29.99,West,270,0.8,3.5,63,0.00,CLR,,0.00,WeatherDisplay:10.37,2013-02-01 18:55:00,
2013-02-01 10:56:00,42.8,31.1,29.99,WSW,248,0.9,3.5,63,0.00,CLR,,0.00,WeatherDisplay:10.37,2013-02-01 18:56:00,
2013-02-01 11:00:00,42.6,31.3,29.99,ESE,112,0.7,0.0,64,0.00,CLR,,0.00,WeatherDisplay:10.37,2013-02-01 19:00:00,
2013-02-01 11:01:00,42.6,31.3,29.99,ESE,112,0.7,0.0,64,0.00,CLR,,0.00,WeatherDisplay:10.37,2013-02-01 19:01:00,
2013-02-01 11:05:00,42.6,30.5,29.99,NNW,338,0.3,0.0,62,0.00,CLR,,0.00,WeatherDisplay:10.37,2013-02-01 19:05:00,
2013-02-01 11:06:00,42.6,30.5,29.99,West,270,0.1,0.0,62,0.00,CLR,,0.00,WeatherDisplay:10.37,2013-02-01 19:06:00,
2013-02-01 11:10:00,42.8,29.9,29.99,NE,45,0.0,1.1,60,0.00,CLR,,0.00,WeatherDisplay:10.37,2013-02-01 19:10:00,
2013-02-01 11:11:00,42.8,29.9,29.99,NE,45,0.0,1.1,60,0.00,CLR,,0.00,WeatherDisplay:10.37,2013-02-01 19:11:00,
2013-02-01 11:15:00,43.7,30.7,29.99,SSW,202,0.5,2.3,60,0.00,CLR,,0.00,WeatherDisplay:10.37,2013-02-01 19:15:00,
2013-02-01 11:16:00,43.7,30.7,29.99,West,270,0.7,2.3,60,0.00,CLR,,0.00,WeatherDisplay:10.37,2013-02-01 19:16:00,
2013-02-01 11:20:00,43.9,30.9,29.99,SW,225,0.9,2.3,60,0.00,CLR,,0.00,WeatherDisplay:10.37,2013-02-01 19:20:00,
2013-02-01 11:21:00,43.9,30.9,29.99,SW,225,0.9,0.0,60,0.00,CLR,,0.00,WeatherDisplay:10.37,2013-02-01 19:21:00,
2013-02-01 11:22:00,43.7,30.3,29.99,SW,225,1.0,0.0,59,0.00,CLR,,0.00,WeatherDisplay:10.37,2013-02-01 19:22:00,
2013-02-01 11:25:00,23.9,21.7,30.03,WNW,298,0.0,0.0,91,0.00,CLR,CLR,0.00,WeatherDisplay:10.37,2013-02-01 19:25:00,
2013-02-01 11:26:00,43.7,30.3,29.99,SSE,158,0.5,1.0,59,0.00,CLR,,0.00,WeatherDisplay:10.37,2013-02-01 19:26:00,
2013-02-01 11:27:00,43.9,30.5,29.99,SSE,158,0.5,1.1,59,0.00,CLR,,0.00,WeatherDisplay:10.37,2013-02-01 19:27:00,
2013-02-01 11:30:00,23.9,21.9,30.03,NW,312,0.0,0.0,92,0.00,CLR,CLR,0.00,WeatherDisplay:10.37,2013-02-01 19:30:00,
2013-02-01 11:31:00,44.2,30.8,29.99,NW,315,0.3,0.0,59,0.00,CLR,,0.00,WeatherDisplay:10.37,2013-02-01 19:31:00,
2013-02-01 11:32:00,43.9,30.5,29.99,WSW,248,0.3,2.3,59,0.00,CLR,,0.00,WeatherDisplay:10.37,2013-02-01 19:32:00,
2013-02-01 11:35:00,23.9,21.9,30.03,NNW,343,0.0,0.0,92,0.00,CLR,CLR,0.00,WeatherDisplay:10.37,2013-02-01 19:35:00,
2013-02-01 11:36:00,43.9,30.5,29.99,ESE,112,0.3,1.1,59,0.00,CLR,,0.00,WeatherDisplay:10.37,2013-02-01 19:36:00,
2013-02-01 11:37:00,43.9,30.5,29.99,ESE,112,0.3,1.1,59,0.00,CLR,,0.00,WeatherDisplay:10.37,2013-02-01 19:37:00,
2013-02-01 11:38:00,43.9,30.5,29.99,NW,315,0.5,0.0,59,0.00,CLR,,0.00,WeatherDisplay:10.37,2013-02-01 19:38:00,
2013-02-01 11:40:00,23.5,21.6,30.03,NW,317,0.0,0.0,92,0.00,CLR,CLR,0.00,WeatherDisplay:10.37,2013-02-01 19:40:00,
2013-02-01 11:41:00,44.8,31.3,29.99,WSW,248,0.6,0.0,59,0.00,CLR,,0.00,WeatherDisplay:10.37,2013-02-01 19:41:00,
2013-02-01 11:42:00,44.8,31.3,29.99,WSW,248,0.6,2.6,59,0.00,CLR,,0.00,WeatherDisplay:10.37,2013-02-01 19:42:00,
2013-02-01 11:43:00,44.8,31.3,29.99,WSW,248,0.6,2.6,59,0.00,CLR,,0.00,WeatherDisplay:10.37,2013-02-01 19:43:00,
2013-02-01 11:45:00,23.7,21.7,30.03,WNW,288,0.0,0.0,92,0.00,CLR,CLR,0.00,WeatherDisplay:10.37,2013-02-01 19:45:00,
2013-02-01 11:46:00,44.8,30.9,29.98,NNW,338,0.9,1.1,58,0.00,CLR,,0.00,WeatherDisplay:10.37,2013-02-01 19:46:00,
2013-02-01 11:47:00,44.8,30.9,29.98,NNW,338,0.9,1.3,58,0.00,CLR,,0.00,WeatherDisplay:10.37,2013-02-01 19:47:00,
2013-02-01 11:48:00,44.6,30.7,29.98,NNE,22,1.1,1.1,58,0.00,CLR,,0.00,WeatherDisplay:10.37,2013-02-01 19:48:00,
2013-02-01 11:50:00,23.5,21.6,30.03,West,267,0.0,0.0,92,0.00,CLR,CLR,0.00,WeatherDisplay:10.37,2013-02-01 19:50:00,
2013-02-01 11:52:00,44.4,30.6,29.98,North,0,1.0,0.0,58,0.00,CLR,,0.00,WeatherDisplay:10.37,2013-02-01 19:52:00,
2013-02-01 11:53:00,44.4,30.6,29.98,North,0,1.0,0.0,58,0.00,CLR,,0.00,WeatherDisplay:10.37,2013-02-01 19:53:00,
2013-02-01 11:55:00,23.4,21.4,30.03,South,187,0.0,0.0,92,0.00,CLR,CLR,0.00,WeatherDisplay:10.37,2013-02-01 19:55:00,
2013-02-01 11:57:00,44.8,30.9,29.98,NW,315,0.7,1.1,58,0.00,CLR,,0.00,WeatherDisplay:10.37,2013-02-01 19:57:00,
2013-02-01 11:58:00,44.4,30.6,29.98,WNW,292,0.6,1.1,58,0.00,CLR,,0.00,WeatherDisplay:10.37,2013-02-01 19:58:00,
2013-02-01 12:00:00,23.0,21.0,30.03,North,4,0.0,0.0,92,0.00,CLR,CLR,0.00,WeatherDisplay:10.37,2013-02-01 20:00:00,
2013-02-01 12:02:00,44.6,30.3,29.98,South,180,0.5,0.0,57,0.00,CLR,,0.00,WeatherDisplay:10.37,2013-02-01 20:02:00,
2013-02-01 12:03:00,44.6,30.3,29.98,South,180,0.5,0.0,57,0.00,CLR,,0.00,WeatherDisplay:10.37,2013-02-01 20:03:00,
2013-02-01 12:05:00,23.2,21.2,30.02,NNW,337,0.0,0.0,92,0.00,CLR,CLR,0.00,WeatherDisplay:10.37,2013-02-01 20:05:00,
2013-02-01 12:07:00,45.0,31.1,29.98,WSW,248,0.5,2.3,58,0.00,CLR,,0.00,WeatherDisplay:10.37,2013-02-01 20:07:00,
2013-02-01 12:08:00,45.0,31.1,29.98,WSW,248,0.5,2.3,58,0.00,CLR,,0.00,WeatherDisplay:10.37,2013-02-01 20:08:00,
2013-02-01 12:09:00,45.0,31.1,29.98,WSW,248,0.5,2.3,58,0.00,CLR,,0.00,WeatherDisplay:10.37,2013-02-01 20:09:00,
2013-02-01 12:10:00,23.2,21.2,30.02,NW,322,0.0,0.0,92,0.00,CLR,CLR,0.00,WeatherDisplay:10.37,2013-02-01 20:10:00,
2013-02-01 12:12:00,45.0,31.1,29.98,WSW,248,0.5,2.3,58,0.00,CLR,,0.00,WeatherDisplay:10.37,2013-02-01 20:12:00,
2013-02-01 12:13:00,45.0,31.1,29.98,WSW,248,0.5,2.3,58,0.00,CLR,,0.00,WeatherDisplay:10.37,2013-02-01 20:13:00,
2013-02-01 12:14:00,45.0,31.1,29.98,WSW,248,0.5,2.3,58,0.00,CLR,,0.00,WeatherDisplay:10.37,2013-02-01 20:14:00,
2013-02-01 12:15:00,22.1,19.9,30.02,West,281,0.0,0.0,91,0.00,CLR,CLR,0.00,WeatherDisplay:10.37,2013-02-01 20:15:00,
2013-02-01 12:17:00,45.9,31.5,29.98,West,270,1.1,2.6,57,0.00,CLR,,0.00,WeatherDisplay:10.37,2013-02-01 20:17:00,
2013-02-01 12:18:00,45.9,31.5,29.98,West,270,1.1,1.1,57,0.00,CLR,,0.00,WeatherDisplay:10.37,2013-02-01 20:18:00,
2013-02-01 12:19:00,46.0,31.6,29.98,ESE,112,1.0,2.3,57,0.00,CLR,,0.00,WeatherDisplay:10.37,2013-02-01 20:19:00,
2013-02-01 12:20:00,21.9,19.7,30.02,WNW,284,0.0,0.0,91,0.00,CLR,CLR,0.00,WeatherDisplay:10.37,2013-02-01 20:20:00,
2013-02-01 12:22:00,46.2,31.4,29.98,WSW,248,1.1,2.3,56,0.00,CLR,,0.00,WeatherDisplay:10.37,2013-02-01 20:22:00,
2013-02-01 12:23:00,46.2,31.4,29.98,WSW,248,1.1,2.3,56,0.00,CLR,,0.00,WeatherDisplay:10.37,2013-02-01 20:23:00,
2013-02-01 12:24:00,46.2,31.4,29.97,SW,225,1.1,2.3,56,0.00,CLR,,0.00,WeatherDisplay:10.37,2013-02-01 20:24:00,
2013-02-01 12:25:00,22.1,19.9,30.03,WNW,297,0.0,0.0,91,0.00,CLR,CLR,0.00,WeatherDisplay:10.37,2013-02-01 20:25:00,
2013-02-01 12:27:00,46.2,31.4,29.97,WSW,248,1.3,2.3,56,0.00,CLR,,0.00,WeatherDisplay:10.37,2013-02-01 20:27:00,
2013-02-01 12:28:00,46.2,31.4,29.97,WSW,248,1.3,2.3,56,0.00,CLR,,0.00,WeatherDisplay:10.37,2013-02-01 20:28:00,
2013-02-01 12:29:00,46.4,31.1,29.97,NNE,22,1.3,1.4,55,0.00,CLR,,0.00,WeatherDisplay:10.37,2013-02-01 20:29:00,
2013-02-01 12:30:00,22.3,20.1,30.03,WNW,303,0.0,0.0,91,0.00,CLR,CLR,0.00,WeatherDisplay:10.37,2013-02-01 20:30:00,
2013-02-01 12:33:00,46.4,30.6,29.97,West,270,1.4,1.4,54,0.00,CLR,,0.00,WeatherDisplay:10.37,2013-02-01 20:33:00,
2013-02-01 12:34:00,46.4,30.6,29.97,South,180,1.3,1.3,54,0.00,CLR,,0.00,WeatherDisplay:10.37,2013-02-01 20:34:00,
2013-02-01 12:35:00,46.4,30.6,29.97,South,180,1.3,2.3,54,0.00,CLR,,0.00,WeatherDisplay:10.37,2013-02-01 20:35:00,
2013-02-01 12:38:00,46.4,30.2,29.97,NW,315,1.1,2.3,53,0.00,CLR,,0.00,WeatherDisplay:10.37,2013-02-01 20:38:00,
2013-02-01 12:39:00,46.4,30.2,29.97,NW,315,1.1,2.3,53,0.00,CLR,,0.00,WeatherDisplay:10.37,2013-02-01 20:39:00,
2013-02-01 12:40:00,46.4,29.7,29.97,SW,225,0.8,2.3,52,0.00,CLR,,0.00,WeatherDisplay:10.37,2013-02-01 20:40:00,
2013-02-01 12:43:00,46.4,29.7,29.97,South,180,0.7,0.0,52,0.00,CLR,,0.00,WeatherDisplay:10.37,2013-02-01 20:43:00,
2013-02-01 12:44:00,46.4,30.2,29.97,North,0,0.7,0.0,53,0.00,CLR,,0.00,WeatherDisplay:10.37,2013-02-01 20:44:00,
2013-02-01 12:45:00,46.4,30.2,29.97,North,0,0.7,0.0,53,0.00,CLR,,0.00,WeatherDisplay:10.37,2013-02-01 20:45:00,
2013-02-01 12:48:00,46.0,30.3,29.97,WSW,248,0.3,0.0,54,0.00,CLR,,0.00,WeatherDisplay:10.37,2013-02-01 20:48:00,
2013-02-01 12:49:00,46.0,30.3,29.97,WSW,248,0.3,0.0,54,0.00,CLR,,0.00,WeatherDisplay:10.37,2013-02-01 20:49:00,
2013-02-01 12:50:00,46.2,30.0,29.97,West,270,0.2,0.0,53,0.00,CLR,,0.00,WeatherDisplay:10.37,2013-02-01 20:50:00,
2013-02-01 12:53:00,46.0,29.4,29.97,SE,135,0.3,2.3,52,0.00,CLR,,0.00,WeatherDisplay:10.37,2013-02-01 20:53:00,
2013-02-01 12:54:00,46.4,29.7,29.97,WNW,292,0.7,4.6,52,0.00,CLR,,0.00,WeatherDisplay:10.37,2013-02-01 20:54:00,
2013-02-01 12:55:00,46.6,29.4,29.97,West,270,0.9,4.6,51,0.00,CLR,,0.00,WeatherDisplay:10.37,2013-02-01 20:55:00,
2013-02-01 12:58:00,46.4,29.7,29.97,NNW,338,0.9,2.3,52,0.00,CLR,,0.00,WeatherDisplay:10.37,2013-02-01 20:58:00,
2013-02-01 13:00:00,46.2,29.5,29.97,NW,315,1.0,0.0,52,0.00,CLR,,0.00,WeatherDisplay:10.37,2013-02-01 21:00:00,
2013-02-01 13:03:00,46.2,30.0,29.96,East,90,0.5,0.0,53,0.00,CLR,,0.00,WeatherDisplay:10.37,2013-02-01 21:03:00,
2013-02-01 13:04:00,46.2,30.0,29.96,East,90,0.5,0.0,53,0.00,CLR,,0.00,WeatherDisplay:10.37,2013-02-01 21:04:00,
2013-02-01 13:05:00,46.2,30.0,29.96,East,90,0.5,0.0,53,0.00,CLR,,0.00,WeatherDisplay:10.37,2013-02-01 21:05:00,
2013-02-01 13:08:00,46.8,30.0,29.96,West,270,0.3,4.6,52,0.00,CLR,,0.00,WeatherDisplay:10.37,2013-02-01 21:08:00,
2013-02-01 13:09:00,46.8,30.0,29.96,West,270,0.3,4.6,52,0.00,CLR,,0.00,WeatherDisplay:10.37,2013-02-01 21:09:00,
2013-02-01 13:10:00,46.9,29.7,29.96,West,270,0.6,4.6,51,0.00,CLR,,0.00,WeatherDisplay:10.37,2013-02-01 21:10:00,
2013-02-01 13:14:00,46.8,29.6,29.96,WNW,292,0.9,1.1,51,0.00,CLR,,0.00,WeatherDisplay:10.37,2013-02-01 21:14:00,
2013-02-01 13:15:00,46.9,29.7,29.96,East,90,1.3,3.5,51,0.00,CLR,,0.00,WeatherDisplay:10.37,2013-02-01 21:15:00,
2013-02-01 13:16:00,46.9,29.7,29.96,East,90,1.3,3.5,51,0.00,CLR,,0.00,WeatherDisplay:10.37,2013-02-01 21:16:00,
2013-02-01 13:19:00,46.9,29.2,29.96,WNW,292,1.5,3.6,50,0.00,CLR,,0.00,WeatherDisplay:10.37,2013-02-01 21:19:00,
2013-02-01 13:20:00,46.9,29.7,29.96,SW,225,1.5,3.5,51,0.00,CLR,,0.00,WeatherDisplay:10.37,2013-02-01 21:20:00,
2013-02-01 13:21:00,46.9,29.7,29.96,SW,225,1.5,3.5,51,0.00,CLR,,0.00,WeatherDisplay:10.37,2013-02-01 21:21:00,
2013-02-01 13:24:00,46.9,29.7,29.96,NW,315,1.1,3.3,51,0.00,CLR,,0.00,WeatherDisplay:10.37,2013-02-01 21:24:00,
2013-02-01 13:25:00,22.1,20.1,30.03,WNW,292,0.0,0.0,92,0.00,CLR,CLR,0.00,WeatherDisplay:10.37,2013-02-01 21:25:00,
2013-02-01 13:26:00,47.1,29.4,29.96,NW,315,1.3,3.5,50,0.00,CLR,,0.00,WeatherDisplay:10.37,2013-02-01 21:26:00,
2013-02-01 13:29:00,46.9,29.2,29.96,East,90,0.9,0.0,50,0.00,CLR,,0.00,WeatherDisplay:10.37,2013-02-01 21:29:00,
2013-02-01 13:30:00,22.5,20.5,30.03,WNW,293,0.0,0.0,92,0.00,CLR,CLR,0.00,WeatherDisplay:10.37,2013-02-01 21:30:00,
2013-02-01 13:31:00,46.9,29.7,29.96,NNW,338,0.6,0.0,51,0.00,CLR,,0.00,WeatherDisplay:10.37,2013-02-01 21:31:00,
2013-02-01 13:34:00,46.6,29.4,29.96,NW,315,0.5,0.0,51,0.00,CLR,,0.00,WeatherDisplay:10.37,2013-02-01 21:34:00,
2013-02-01 13:35:00,23.0,21.3,30.03,NNW,341,0.0,1.0,93,0.00,CLR,CLR,0.00,WeatherDisplay:10.37,2013-02-01 21:35:00,
2013-02-01 13:36:00,46.6,28.9,29.96,NW,315,0.5,2.3,50,0.00,CLR,,0.00,WeatherDisplay:10.37,2013-02-01 21:36:00,
2013-02-01 13:39:00,46.9,28.8,29.96,SSW,202,0.5,1.1,49,0.00,CLR,,0.00,WeatherDisplay:10.37,2013-02-01 21:39:00,
2013-02-01 13:40:00,46.9,28.8,29.96,SSW,202,0.5,1.1,49,0.00,CLR,,0.00,WeatherDisplay:10.37,2013-02-01 21:40:00,
2013-02-01 13:41:00,46.9,28.8,29.96,SSW,202,0.5,0.0,49,0.00,CLR,,0.00,WeatherDisplay:10.37,2013-02-01 21:41:00,
2013-02-01 13:45:00,47.1,28.4,29.96,WSW,248,0.7,0.0,48,0.00,CLR,,0.00,WeatherDisplay:10.37,2013-02-01 21:45:00,
2013-02-01 13:46:00,47.1,28.9,29.96,North,0,0.6,2.3,49,0.00,CLR,,0.00,WeatherDisplay:10.37,2013-02-01 21:46:00,
2013-02-01 13:47:00,46.9,28.8,29.96,NNW,338,0.3,2.3,49,0.00,CLR,,0.00,WeatherDisplay:10.37,2013-02-01 21:47:00,
2013-02-01 13:50:00,46.9,28.3,29.96,NE,45,0.3,0.0,48,0.00,CLR,,0.00,WeatherDisplay:10.37,2013-02-01 21:50:00,
2013-02-01 13:51:00,46.8,28.6,29.96,NW,315,0.2,0.0,49,0.00,CLR,,0.00,WeatherDisplay:10.37,2013-02-01 21:51:00,
2013-02-01 13:52:00,46.8,28.6,29.96,NW,315,0.2,0.0,49,0.00,CLR,,0.00,WeatherDisplay:10.37,2013-02-01 21:52:00,
2013-02-01 13:55:00,46.8,29.1,29.96,NNW,348,0.0,0.0,50,0.00,CLR,CLR,0.00,WeatherDisplay:10.37,2013-02-01 21:55:00,
2013-02-01 13:56:00,47.1,29.4,29.96,NW,315,0.1,0.0,50,0.00,CLR,,0.00,WeatherDisplay:10.37,2013-02-01 21:56:00,
2013-02-01 13:57:00,47.1,29.9,29.96,NNW,338,0.1,0.0,51,0.00,CLR,,0.00,WeatherDisplay:10.37,2013-02-01 21:57:00,
2013-02-01 14:00:00,47.1,29.4,29.96,NW,315,0.3,1.1,50,0.00,CLR,,0.00,WeatherDisplay:10.37,2013-02-01 22:00:00,
2013-02-01 14:01:00,47.1,29.4,29.96,West,270,0.5,0.0,50,0.00,CLR,,0.00,WeatherDisplay:10.37,2013-02-01 22:01:00,
2013-02-01 14:03:00,47.1,29.4,29.96,West,270,0.5,2.3,50,0.00,CLR,,0.00,WeatherDisplay:10.37,2013-02-01 22:03:00,
2013-02-01 14:05:00,47.3,28.6,29.95,NNW,338,0.6,2.3,48,0.00,CLR,,0.00,WeatherDisplay:10.37,2013-02-01 22:05:00,
2013-02-01 14:06:00,47.3,28.6,29.95,SW,225,0.6,0.0,48,0.00,CLR,,0.00,WeatherDisplay:10.37,2013-02-01 22:06:00,
2013-02-01 14:08:00,47.3,28.6,29.95,SSE,158,0.6,0.0,48,0.00,CLR,,0.00,WeatherDisplay:10.37,2013-02-01 22:08:00,
2013-02-01 14:10:00,47.1,28.4,29.95,West,270,0.3,1.1,48,0.00,CLR,,0.00,WeatherDisplay:10.37,2013-02-01 22:10:00,
2013-02-01 14:11:00,47.1,28.4,29.95,West,270,0.3,1.1,48,0.00,CLR,,0.00,WeatherDisplay:10.37,2013-02-01 22:11:00,
2013-02-01 14:12:00,47.3,29.1,29.95,NW,315,0.5,2.0,49,0.00,CLR,,0.00,WeatherDisplay:10.37,2013-02-01 22:12:00,
2013-02-01 14:13:00,47.3,28.6,29.95,NE,45,0.2,2.3,48,0.00,CLR,,0.00,WeatherDisplay:10.37,2013-02-01 22:13:00,
2013-02-01 14:15:00,47.3,28.6,29.95,SW,234,0.0,2.0,48,0.00,CLR,CLR,0.00,WeatherDisplay:10.37,2013-02-01 22:15:00,
2013-02-01 14:16:00,47.1,28.4,29.95,ESE,112,0.2,0.0,48,0.00,CLR,,0.00,WeatherDisplay:10.37,2013-02-01 22:16:00,
2013-02-01 14:17:00,47.1,28.4,29.95,ESE,112,0.2,0.0,48,0.00,CLR,,0.00,WeatherDisplay:10.37,2013-02-01 22:17:00,
2013-02-01 14:19:00,47.3,28.6,29.95,ENE,68,0.2,0.0,48,0.00,CLR,,0.00,WeatherDisplay:10.37,2013-02-01 22:19:00,
2013-02-01 14:20:00,47.1,28.4,29.95,NNE,22,0.2,0.0,48,0.00,CLR,,0.00,WeatherDisplay:10.37,2013-02-01 22:20:00,
2013-02-01 14:21:00,47.1,28.4,29.95,WSW,248,0.2,0.0,48,0.00,CLR,,0.00,WeatherDisplay:10.37,2013-02-01 22:21:00,
2013-02-01 14:22:00,47.1,28.4,29.95,WSW,248,0.2,0.0,48,0.00,CLR,,0.00,WeatherDisplay:10.37,2013-02-01 22:22:00,
2013-02-01 14:24:00,47.1,28.4,29.95,ESE,112,0.2,0.0,48,0.00,CLR,,0.00,WeatherDisplay:10.37,2013-02-01 22:24:00,
2013-02-01 14:25:00,47.3,28.1,29.95,South,180,0.1,0.0,47,0.00,CLR,,0.00,WeatherDisplay:10.37,2013-02-01 22:25:00,
2013-02-01 14:26:00,47.3,28.1,29.95,South,180,0.1,0.0,47,0.00,CLR,,0.00,WeatherDisplay:10.37,2013-02-01 22:26:00,
2013-02-01 14:27:00,47.3,28.1,29.95,South,180,0.1,0.0,47,0.00,CLR,,0.00,WeatherDisplay:10.37,2013-02-01 22:27:00,
2013-02-01 14:29:00,47.3,28.6,29.95,NE,45,0.1,0.0,48,0.00,CLR,,0.00,WeatherDisplay:10.37,2013-02-01 22:29:00,
2013-02-01 14:30:00,23.2,22.0,30.02,North,3,0.0,0.0,95,0.00,CLR,CLR,0.00,WeatherDisplay:10.37,2013-02-01 22:30:00,
2013-02-01 14:31:00,47.3,28.6,29.95,ENE,68,0.1,0.0,48,0.00,CLR,,0.00,WeatherDisplay:10.37,2013-02-01 22:31:00,
2013-02-01 14:32:00,47.3,28.6,29.95,ENE,68,0.1,0.0,48,0.00,CLR,,0.00,WeatherDisplay:10.37,2013-02-01 22:32:00,
2013-02-01 14:34:00,47.3,28.1,29.95,NW,315,0.1,1.1,47,0.00,CLR,,0.00,WeatherDisplay:10.37,2013-02-01 22:34:00,
2013-02-01 14:35:00,23.0,21.8,30.02,NW,325,0.0,0.0,95,0.00,CLR,CLR,0.00,WeatherDisplay:10.37,2013-02-01 22:35:00,
2013-02-01 14:36:00,47.3,27.5,29.95,NNW,338,0.2,1.1,46,0.00,CLR,,0.00,WeatherDisplay:10.37,2013-02-01 22:36:00,
2013-02-01 14:37:00,47.3,28.1,29.95,West,270,0.2,0.0,47,0.00,CLR,,0.00,WeatherDisplay:10.37,2013-02-01 22:37:00,
2013-02-01 14:39:00,47.3,28.1,29.95,South,180,0.2,0.0,47,0.00,CLR,,0.00,WeatherDisplay:10.37,2013-02-01 22:39:00,
2013-02-01 14:40:00,22.8,21.6,30.02,WNW,293,0.0,0.0,95,0.00,CLR,CLR,0.00,WeatherDisplay:10.37,2013-02-01 22:40:00,
2013-02-01 14:41:00,47.3,27.5,29.95,NW,315,0.2,1.6,46,0.00,CLR,,0.00,WeatherDisplay:10.37,2013-02-01 22:41:00,
2013-02-01 14:42:00,47.3,27.5,29.95,NW,315,0.2,1.6,46,0.00,CLR,,0.00,WeatherDisplay:10.37,2013-02-01 22:42:00,
2013-02-01 14:44:00,47.5,28.2,29.95,NW,315,0.3,1.1,47,0.00,CLR,,0.00,WeatherDisplay:10.37,2013-02-01 22:44:00,
2013-02-01 14:45:00,22.5,21.2,30.01,West,272,0.0,0.0,95,0.00,CLR,CLR,0.00,WeatherDisplay:10.37,2013-02-01 22:45:00,
2013-02-01 14:46:00,47.3,28.1,29.95,ESE,112,0.2,1.1,47,0.00,CLR,,0.00,WeatherDisplay:10.37,2013-02-01 22:46:00,
2013-02-01 14:47:00,47.3,28.1,29.95,ESE,112,0.2,0.0,47,0.00,CLR,,0.00,WeatherDisplay:10.37,2013-02-01 22:47:00,
2013-02-01 14:50:00,47.3,28.6,29.95,NE,45,0.2,0.0,48,0.00,CLR,,0.00,WeatherDisplay:10.37,2013-02-01 22:50:00,
2013-02-01 14:52:00,47.3,28.1,29.95,WNW,292,0.3,1.5,47,0.00,CLR,,0.00,WeatherDisplay:10.37,2013-02-01 22:52:00,
2013-02-01 14:53:00,47.3,28.1,29.95,WNW,292,0.3,1.5,47,0.00,CLR,,0.00,WeatherDisplay:10.37,2013-02-01 22:53:00,
2013-02-01 14:55:00,47.5,27.7,29.95,East,90,0.3,1.1,46,0.00,CLR,,0.00,WeatherDisplay:10.37,2013-02-01 22:55:00,
2013-02-01 14:57:00,47.5,27.7,29.95,WNW,292,0.3,2.3,46,0.00,CLR,,0.00,WeatherDisplay:10.37,2013-02-01 22:57:00,
2013-02-01 14:58:00,47.5,27.7,29.95,ENE,68,0.3,2.3,46,0.00,CLR,,0.00,WeatherDisplay:10.37,2013-02-01 22:58:00,
2013-02-01 15:00:00,47.5,27.7,29.95,North,0,0.0,2.0,46,0.00,CLR,CLR,0.00,WeatherDisplay:10.37,2013-02-01 23:00:00,
2013-02-01 15:02:00,47.7,27.3,29.95,ESE,112,0.3,0.0,45,0.00,CLR,,0.00,WeatherDisplay:10.37,2013-02-01 23:02:00,
2013-02-01 15:03:00,47.7,27.3,29.95,ESE,112,0.3,0.0,45,0.00,CLR,,0.00,WeatherDisplay:10.37,2013-02-01 23:03:00,
2013-02-01 15:05:00,47.5,27.2,29.96,NNW,338,0.2,0.0,45,0.00,CLR,,0.00,WeatherDisplay:10.37,2013-02-01 23:05:00,
2013-02-01 15:07:00,47.5,27.7,29.96,West,270,0.1,0.0,46,0.00,CLR,,0.00,WeatherDisplay:10.37,2013-02-01 23:07:00,
2013-02-01 15:08:00,47.5,27.7,29.96,West,270,0.1,0.0,46,0.00,CLR,,0.00,WeatherDisplay:10.37,2013-02-01 23:08:00,
2013-02-01 15:10:00,47.5,27.7,29.96,ENE,68,0.1,0.0,46,0.00,CLR,,0.00,WeatherDisplay:10.37,2013-02-01 23:10:00,
2013-02-01 15:12:00,47.5,27.7,29.96,West,270,0.0,0.0,46,0.00,CLR,,0.00,WeatherDisplay:10.37,2013-02-01 23:12:00,
2013-02-01 15:13:00,47.7,27.9,29.96,NE,45,0.0,0.0,46,0.00,CLR,,0.00,WeatherDisplay:10.37,2013-02-01 23:13:00,
2013-02-01 15:15:00,47.7,27.9,29.96,NE,45,0.0,1.4,46,0.00,CLR,,0.00,WeatherDisplay:10.37,2013-02-01 23:15:00,
2013-02-01 15:17:00,47.7,27.9,29.96,SW,225,0.0,0.0,46,0.00,CLR,,0.00,WeatherDisplay:10.37,2013-02-01 23:17:00,
2013-02-01 15:18:00,47.7,27.9,29.96,SW,225,0.0,0.0,46,0.00,CLR,,0.00,WeatherDisplay:10.37,2013-02-01 23:18:00,
2013-02-01 15:20:00,47.7,27.3,29.96,North,0,0.1,0.0,45,0.00,CLR,,0.00,WeatherDisplay:10.37,2013-02-01 23:20:00,
2013-02-01 15:22:00,47.5,27.2,29.96,NE,45,0.1,0.0,45,0.00,CLR,,0.00,WeatherDisplay:10.37,2013-02-01 23:22:00,
2013-02-01 15:23:00,47.5,27.2,29.95,WNW,292,0.1,0.0,45,0.00,CLR,,0.00,WeatherDisplay:10.37,2013-02-01 23:23:00,
2013-02-01 15:25:00,47.3,27.5,29.95,NW,315,0.0,0.0,46,0.00,CLR,,0.00,WeatherDisplay:10.37,2013-02-01 23:25:00,
2013-02-01 15:27:00,47.3,27.5,29.95,NW,315,0.0,0.0,46,0.00,CLR,,0.00,WeatherDisplay:10.37,2013-02-01 23:27:00,
2013-02-01 15:28:00,47.3,27.5,29.95,NW,315,0.0,0.0,46,0.00,CLR,,0.00,WeatherDisplay:10.37,2013-02-01 23:28:00,
2013-02-01 15:30:00,47.1,27.4,29.95,SE,135,0.0,0.0,46,0.00,CLR,,0.00,WeatherDisplay:10.37,2013-02-01 23:30:00,
2013-02-01 15:32:00,47.3,27.5,29.95,NNW,338,0.0,0.0,46,0.00,CLR,,0.00,WeatherDisplay:10.37,2013-02-01 23:32:00,
2013-02-01 15:33:00,47.3,27.5,29.95,NNW,338,0.0,0.0,46,0.00,CLR,,0.00,WeatherDisplay:10.37,2013-02-01 23:33:00,
2013-02-01 15:35:00,47.7,27.9,29.95,West,270,0.0,0.0,46,0.00,CLR,,0.00,WeatherDisplay:10.37,2013-02-01 23:35:00,
2013-02-01 15:37:00,47.7,27.9,29.95,NE,45,0.0,0.0,46,0.00,CLR,,0.00,WeatherDisplay:10.37,2013-02-01 23:37:00,
2013-02-01 15:38:00,47.7,27.9,29.95,NE,45,0.0,0.0,46,0.00,CLR,,0.00,WeatherDisplay:10.37,2013-02-01 23:38:00,
2013-02-01 15:40:00,47.8,27.5,29.95,South,180,0.0,0.0,45,0.00,CLR,,0.00,WeatherDisplay:10.37,2013-02-01 23:40:00,
2013-02-01 15:43:00,47.7,27.3,29.95,NNW,338,0.0,0.0,45,0.00,CLR,,0.00,WeatherDisplay:10.37,2013-02-01 23:43:00,
2013-02-01 15:44:00,47.7,26.8,29.95,North,0,0.0,0.0,44,0.00,CLR,,0.00,WeatherDisplay:10.37,2013-02-01 23:44:00,
2013-02-01 15:45:00,23.5,22.3,30.01,NW,306,0.0,0.0,95,0.00,CLR,CLR,0.00,WeatherDisplay:10.37,2013-02-01 23:45:00,
2013-02-01 15:46:00,47.7,27.3,29.95,NNW,338,0.0,0.0,45,0.00,CLR,,0.00,WeatherDisplay:10.37,2013-02-01 23:46:00,
2013-02-01 15:48:00,47.5,27.2,29.95,NE,45,0.0,0.0,45,0.00,CLR,,0.00,WeatherDisplay:10.37,2013-02-01 23:48:00,
2013-02-01 15:49:00,47.5,27.2,29.95,NE,45,0.0,0.0,45,0.00,CLR,,0.00,WeatherDisplay:10.37,2013-02-01 23:49:00,
2013-02-01 15:51:00,47.5,27.2,29.95,West,270,0.0,0.0,45,0.00,CLR,,0.00,WeatherDisplay:10.37,2013-02-01 23:51:00,
2013-02-01 15:53:00,47.5,27.2,29.95,SW,225,0.0,0.0,45,0.00,CLR,,0.00,WeatherDisplay:10.37,2013-02-01 23:53:00,
2013-02-01 15:54:00,47.5,27.2,29.95,NE,45,0.0,0.0,45,0.00,CLR,,0.00,WeatherDisplay:10.37,2013-02-01 23:54:00,
2013-02-01 15:56:00,47.5,27.2,29.95,NNE,22,0.0,0.0,45,0.00,CLR,,0.00,WeatherDisplay:10.37,2013-02-01 23:56:00,
2013-02-01 15:58:00,47.5,26.6,29.95,NNE,22,0.0,0.0,44,0.00,CLR,,0.00,WeatherDisplay:10.37,2013-02-01 23:58:00,
2013-02-01 15:59:00,47.5,26.6,29.95,NNE,22,0.0,0.0,44,0.00,CLR,,0.00,WeatherDisplay:10.37,2013-02-01 23:59:00,
2013-02-01 16:01:00,47.3,27.0,29.95,ENE,68,0.0,0.0,45,0.00,CLR,,0.00,WeatherDisplay:10.37,2013-02-02 00:01:00,
2013-02-01 16:03:00,47.3,27.0,29.95,NNE,22,0.0,0.0,45,0.00,CLR,,0.00,WeatherDisplay:10.37,2013-02-02 00:03:00,
2013-02-01 16:04:00,47.3,26.5,29.95,ESE,112,0.0,0.0,44,0.00,CLR,,0.00,WeatherDisplay:10.37,2013-02-02 00:04:00,
2013-02-01 16:06:00,47.3,26.5,29.95,WSW,248,0.0,0.0,44,0.00,CLR,,0.00,WeatherDisplay:10.37,2013-02-02 00:06:00,
2013-02-01 16:08:00,47.3,25.9,29.95,North,0,0.0,0.0,43,0.00,CLR,,0.00,WeatherDisplay:10.37,2013-02-02 00:08:00,
2013-02-01 16:09:00,47.3,25.9,29.95,North,0,0.0,0.0,43,0.00,CLR,,0.00,WeatherDisplay:10.37,2013-02-02 00:09:00,
2013-02-01 16:11:00,47.1,26.3,29.95,NW,315,0.0,0.0,44,0.00,CLR,,0.00,WeatherDisplay:10.37,2013-02-02 00:11:00,
2013-02-01 16:13:00,47.1,26.3,29.95,NE,45,0.0,0.0,44,0.00,CLR,,0.00,WeatherDisplay:10.37,2013-02-02 00:13:00,
2013-02-01 16:14:00,47.1,26.3,29.95,West,270,0.0,0.0,44,0.00,CLR,,0.00,WeatherDisplay:10.37,2013-02-02 00:14:00,
2013-02-01 16:15:00,47.1,26.3,29.95,West,270,0.0,0.0,44,0.00,CLR,,0.00,WeatherDisplay:10.37,2013-02-02 00:15:00,
2013-02-01 16:16:00,47.1,25.7,29.95,NNE,22,0.0,0.0,43,0.00,CLR,,0.00,WeatherDisplay:10.37,2013-02-02 00:16:00,
2013-02-01 16:18:00,47.1,25.7,29.95,WSW,248,0.0,0.0,43,0.00,CLR,,0.00,WeatherDisplay:10.37,2013-02-02 00:18:00,
2013-02-01 16:19:00,47.1,25.7,29.95,WSW,248,0.0,0.0,43,0.00,CLR,,0.00,WeatherDisplay:10.37,2013-02-02 00:19:00,
2013-02-01 16:20:00,47.1,25.7,29.95,ESE,112,0.0,0.0,43,0.00,CLR,,0.00,WeatherDisplay:10.37,2013-02-02 00:20:00,
2013-02-01 16:21:00,46.9,25.6,29.95,ESE,112,0.0,0.0,43,0.00,CLR,,0.00,WeatherDisplay:10.37,2013-02-02 00:21:00,
2013-02-01 16:23:00,46.8,25.4,29.95,South,180,0.0,0.0,43,0.00,CLR,,0.00,WeatherDisplay:10.37,2013-02-02 00:23:00,
2013-02-01 16:24:00,46.8,25.4,29.95,South,180,0.0,0.0,43,0.00,CLR,,0.00,WeatherDisplay:10.37,2013-02-02 00:24:00,
2013-02-01 16:25:00,46.8,25.4,29.95,South,180,0.0,0.0,43,0.00,CLR,,0.00,WeatherDisplay:10.37,2013-02-02 00:25:00,
2013-02-01 16:26:00,46.6,25.3,29.95,East,90,0.0,0.0,43,0.00,CLR,,0.00,WeatherDisplay:10.37,2013-02-02 00:26:00,
2013-02-01 16:28:00,46.6,25.3,29.95,South,180,0.0,0.0,43,0.00,CLR,,0.00,WeatherDisplay:10.37,2013-02-02 00:28:00,
2013-02-01 16:29:00,46.4,25.6,29.95,ENE,68,0.0,0.0,44,0.00,CLR,,0.00,WeatherDisplay:10.37,2013-02-02 00:29:00,
2013-02-01 16:30:00,46.4,25.6,29.95,ENE,68,0.0,0.0,44,0.00,CLR,,0.00,WeatherDisplay:10.37,2013-02-02 00:30:00,
2013-02-01 16:31:00,46.4,25.6,29.95,WSW,248,0.0,0.0,44,0.00,CLR,,0.00,WeatherDisplay:10.37,2013-02-02 00:31:00,
2013-02-01 16:34:00,46.2,26.0,29.95,NE,45,0.0,0.0,45,0.00,CLR,,0.00,WeatherDisplay:10.37,2013-02-02 00:34:00,
2013-02-01 16:35:00,46.2,26.6,29.95,North,0,0.0,0.0,46,0.00,CLR,,0.00,WeatherDisplay:10.37,2013-02-02 00:35:00,
2013-02-01 16:36:00,46.2,26.6,29.95,North,0,0.0,0.0,46,0.00,CLR,,0.00,WeatherDisplay:10.37,2013-02-02 00:36:00,
2013-02-01 16:39:00,46.2,26.6,29.95,NW,315,0.0,0.0,46,0.00,CLR,,0.00,WeatherDisplay:10.37,2013-02-02 00:39:00,
2013-02-01 16:40:00,46.2,26.6,29.95,NW,315,0.0,0.0,46,0.00,CLR,,0.00,WeatherDisplay:10.37,2013-02-02 00:40:00,
2013-02-01 16:41:00,46.2,26.6,29.95,NW,315,0.0,0.0,46,0.00,CLR,,0.00,WeatherDisplay:10.37,2013-02-02 00:41:00,
2013-02-01 16:42:00,46.0,26.4,29.95,NNE,22,0.0,0.0,46,0.00,CLR,,0.00,WeatherDisplay:10.37,2013-02-02 00:42:00,
2013-02-01 16:44:00,45.9,26.7,29.95,North,0,0.0,0.0,47,0.00,CLR,,0.00,WeatherDisplay:10.37,2013-02-02 00:44:00,
2013-02-01 16:45:00,45.9,26.7,29.95,North,0,0.0,0.0,47,0.00,CLR,,0.00,WeatherDisplay:10.37,2013-02-02 00:45:00,
2013-02-01 16:46:00,45.7,27.1,29.95,NW,315,0.0,0.0,48,0.00,CLR,,0.00,WeatherDisplay:10.37,2013-02-02 00:46:00,
2013-02-01 16:47:00,45.7,27.1,29.95,NW,315,0.0,0.0,48,0.00,CLR,,0.00,WeatherDisplay:10.37,2013-02-02 00:47:00,
2013-02-01 16:49:00,45.5,26.9,29.95,NNE,22,0.0,0.0,48,0.00,CLR,,0.00,WeatherDisplay:10.37,2013-02-02 00:49:00,
2013-02-01 16:50:00,45.1,27.1,29.95,West,270,0.0,0.0,49,0.00,CLR,,0.00,WeatherDisplay:10.37,2013-02-02 00:50:00,
2013-02-01 16:52:00,45.0,26.9,29.95,NE,45,0.0,0.0,49,0.00,CLR,,0.00,WeatherDisplay:10.37,2013-02-02 00:52:00,
2013-02-01 16:54:00,44.8,26.8,29.95,NNE,22,0.0,0.0,49,0.00,CLR,,0.00,WeatherDisplay:10.37,2013-02-02 00:54:00,
2013-02-01 16:55:00,44.6,27.1,29.95,ENE,68,0.0,0.0,50,0.00,CLR,,0.00,WeatherDisplay:10.37,2013-02-02 00:55:00,
2013-02-01 16:57:00,44.6,27.1,29.95,ENE,68,0.0,0.0,50,0.00,CLR,,0.00,WeatherDisplay:10.37,2013-02-02 00:57:00,
2013-02-01 16:59:00,44.2,26.8,29.95,NNE,22,0.0,0.0,50,0.00,CLR,,0.00,WeatherDisplay:10.37,2013-02-02 00:59:00,
2013-02-01 17:00:00,44.2,26.8,29.95,NNE,22,0.0,0.0,50,0.00,CLR,,0.00,WeatherDisplay:10.37,2013-02-02 01:00:00,
2013-02-01 17:02:00,44.2,26.8,29.95,NNE,22,0.0,0.0,50,0.00,CLR,,0.00,WeatherDisplay:10.37,2013-02-02 01:02:00,
2013-02-01 17:04:00,44.2,26.8,29.95,ENE,68,0.0,0.0,50,0.00,CLR,,0.00,WeatherDisplay:10.37,2013-02-02 01:04:00,
2013-02-01 17:05:00,44.2,27.2,29.95,NE,45,0.0,0.0,51,0.00,CLR,,0.00,WeatherDisplay:10.37,2013-02-02 01:05:00,
2013-02-01 17:07:00,44.1,27.1,29.95,NNE,22,0.0,0.0,51,0.00,CLR,,0.00,WeatherDisplay:10.37,2013-02-02 01:07:00,
2013-02-01 17:08:00,44.1,27.1,29.95,NNE,22,0.0,0.0,51,0.00,CLR,,0.00,WeatherDisplay:10.37,2013-02-02 01:08:00,
2013-02-01 17:09:00,43.9,26.9,29.95,NE,45,0.0,0.0,51,0.00,CLR,,0.00,WeatherDisplay:10.37,2013-02-02 01:09:00,
2013-02-01 17:11:00,43.9,26.9,29.95,NE,45,0.0,0.0,51,0.00,CLR,,0.00,WeatherDisplay:10.37,2013-02-02 01:11:00,
2013-02-01 17:13:00,43.7,26.7,29.95,NNE,22,0.0,0.0,51,0.00,CLR,,0.00,WeatherDisplay:10.37,2013-02-02 01:13:00,
2013-02-01 17:14:00,43.3,26.4,29.95,NNE,22,0.0,0.0,51,0.00,CLR,,0.00,WeatherDisplay:10.37,2013-02-02 01:14:00,
2013-02-01 17:16:00,43.2,26.7,29.95,NNE,22,0.0,0.0,52,0.00,CLR,,0.00,WeatherDisplay:10.37,2013-02-02 01:16:00,
2013-02-01 17:18:00,42.6,26.7,29.95,NNE,22,0.0,0.0,53,0.00,CLR,,0.00,WeatherDisplay:10.37,2013-02-02 01:18:00,
2013-02-01 17:19:00,42.3,26.3,29.95,NNE,22,0.0,0.0,53,0.00,CLR,,0.00,WeatherDisplay:10.37,2013-02-02 01:19:00,
2013-02-01 17:21:00,42.3,26.3,29.95,NNE,22,0.0,0.0,53,0.00,CLR,,0.00,WeatherDisplay:10.37,2013-02-02 01:21:00,
2013-02-01 17:23:00,42.1,26.6,29.95,NNE,22,0.0,0.0,54,0.00,CLR,,0.00,WeatherDisplay:10.37,2013-02-02 01:23:00,
2013-02-01 17:24:00,41.9,26.4,29.95,NNE,22,0.0,0.0,54,0.00,CLR,,0.00,WeatherDisplay:10.37,2013-02-02 01:24:00,
2013-02-01 17:26:00,41.9,26.9,29.95,West,270,0.0,0.0,55,0.00,CLR,,0.00,WeatherDisplay:10.37,2013-02-02 01:26:00,
2013-02-01 17:28:00,42.1,27.1,29.95,WNW,292,0.0,0.0,55,0.00,CLR,,0.00,WeatherDisplay:10.37,2013-02-02 01:28:00,
2013-02-01 17:29:00,42.1,27.1,29.95,NE,45,0.0,0.0,55,0.00,CLR,,0.00,WeatherDisplay:10.37,2013-02-02 01:29:00,
2013-02-01 17:31:00,42.1,27.1,29.95,NE,45,0.0,0.0,55,0.00,CLR,,0.00,WeatherDisplay:10.37,2013-02-02 01:31:00,
2013-02-01 17:33:00,41.7,26.7,29.95,NNE,22,0.0,0.0,55,0.00,CLR,,0.00,WeatherDisplay:10.37,2013-02-02 01:33:00,
2013-02-01 17:35:00,41.7,27.2,29.95,NE,45,0.0,0.0,56,0.00,CLR,,0.00,WeatherDisplay:10.37,2013-02-02 01:35:00,
2013-02-01 17:36:00,41.4,26.8,29.95,NE,45,0.0,0.0,56,0.00,CLR,,0.00,WeatherDisplay:10.37,2013-02-02 01:36:00,
2013-02-01 17:38:00,41.2,26.7,29.95,ENE,68,0.0,0.0,56,0.00,CLR,,0.00,WeatherDisplay:10.37,2013-02-02 01:38:00,
2013-02-01 17:39:00,41.2,26.7,29.95,ENE,68,0.0,0.0,56,0.00,CLR,,0.00,WeatherDisplay:10.37,2013-02-02 01:39:00,
2013-02-01 17:40:00,41.0,26.5,29.95,NE,45,0.0,0.0,56,0.00,CLR,,0.00,WeatherDisplay:10.37,2013-02-02 01:40:00,
2013-02-01 17:41:00,41.0,26.5,29.95,NE,45,0.0,0.0,56,0.00,CLR,,0.00,WeatherDisplay:10.37,2013-02-02 01:41:00,
2013-02-01 17:43:00,40.8,26.7,29.96,NE,45,0.0,0.0,57,0.00,CLR,,0.00,WeatherDisplay:10.37,2013-02-02 01:43:00,
2013-02-01 17:44:00,40.8,26.7,29.96,NE,45,0.0,0.0,57,0.00,CLR,,0.00,WeatherDisplay:10.37,2013-02-02 01:44:00,
2013-02-01 17:45:00,40.8,26.7,29.96,NE,45,0.0,0.0,57,0.00,CLR,,0.00,WeatherDisplay:10.37,2013-02-02 01:45:00,
2013-02-01 17:46:00,40.8,26.7,29.96,NE,45,0.0,0.0,57,0.00,CLR,,0.00,WeatherDisplay:10.37,2013-02-02 01:46:00,
2013-02-01 17:48:00,40.5,26.8,29.96,NNE,22,0.0,0.0,58,0.00,CLR,,0.00,WeatherDisplay:10.37,2013-02-02 01:48:00,
2013-02-01 17:49:00,40.5,26.8,29.96,NNE,22,0.0,0.0,58,0.00,CLR,,0.00,WeatherDisplay:10.37,2013-02-02 01:49:00,
2013-02-01 17:50:00,40.3,26.7,29.96,NNE,22,0.0,0.0,58,0.00,CLR,,0.00,WeatherDisplay:10.37,2013-02-02 01:50:00,
2013-02-01 17:51:00,40.1,26.5,29.96,South,180,0.0,0.0,58,0.00,CLR,,0.00,WeatherDisplay:10.37,2013-02-02 01:51:00,
2013-02-01 17:54:00,39.7,26.2,29.96,South,180,0.0,0.0,58,0.00,CLR,,0.00,WeatherDisplay:10.37,2013-02-02 01:54:00,
2013-02-01 17:55:00,39.7,26.2,29.96,South,180,0.0,0.0,58,0.00,CLR,,0.00,WeatherDisplay:10.37,2013-02-02 01:55:00,
2013-02-01 17:56:00,39.6,26.0,29.96,NE,45,0.0,0.0,58,0.00,CLR,,0.00,WeatherDisplay:10.37,2013-02-02 01:56:00,
2013-02-01 17:59:00,39.6,26.0,29.96,NE,45,0.0,0.0,58,0.00,CLR,,0.00,WeatherDisplay:10.37,2013-02-02 01:59:00,
2013-02-01 18:00:00,39.4,26.2,29.96,NE,45,0.0,0.0,59,0.00,CLR,,0.00,WeatherDisplay:10.37,2013-02-02 02:00:00,
2013-02-01 18:01:00,39.2,26.1,29.96,NE,45,0.0,0.0,59,0.00,CLR,,0.00,WeatherDisplay:10.37,2013-02-02 02:01:00,
2013-02-01 18:04:00,38.8,25.7,29.97,NE,45,0.0,0.0,59,0.00,CLR,,0.00,WeatherDisplay:10.37,2013-02-02 02:04:00,
2013-02-01 18:05:00,38.7,25.6,29.97,NE,45,0.0,0.0,59,0.00,CLR,,0.00,WeatherDisplay:10.37,2013-02-02 02:05:00,
2013-02-01 18:07:00,38.7,25.6,29.97,NE,45,0.0,0.0,59,0.00,CLR,,0.00,WeatherDisplay:10.37,2013-02-02 02:07:00,
2013-02-01 18:09:00,38.5,25.4,29.97,NE,45,0.0,0.0,59,0.00,CLR,,0.00,WeatherDisplay:10.37,2013-02-02 02:09:00,
2013-02-01 18:10:00,38.1,25.0,29.97,NE,45,0.0,0.0,59,0.00,CLR,,0.00,WeatherDisplay:10.37,2013-02-02 02:10:00,
2013-02-01 18:12:00,38.1,25.4,29.97,NE,45,0.0,0.0,60,0.00,CLR,,0.00,WeatherDisplay:10.37,2013-02-02 02:12:00,
2013-02-01 18:14:00,37.8,25.1,29.97,WNW,292,0.0,0.0,60,0.00,CLR,,0.00,WeatherDisplay:10.37,2013-02-02 02:14:00,
2013-02-01 18:16:00,37.6,24.9,29.97,NW,315,0.0,0.0,60,0.00,CLR,,0.00,WeatherDisplay:10.37,2013-02-02 02:16:00,
2013-02-01 18:17:00,37.6,24.9,29.97,NW,315,0.0,0.0,60,0.00,CLR,,0.00,WeatherDisplay:10.37,2013-02-02 02:17:00,
2013-02-01 18:19:00,37.4,25.2,29.97,SE,135,0.0,0.0,61,0.00,CLR,,0.00,WeatherDisplay:10.37,2013-02-02 02:19:00,
2013-02-01 18:20:00,36.9,25.0,29.97,NNE,22,0.0,0.0,62,0.00,CLR,,0.00,WeatherDisplay:10.37,2013-02-02 02:20:00,
2013-02-01 18:21:00,36.9,25.0,29.97,NNE,22,0.0,0.0,62,0.00,CLR,,0.00,WeatherDisplay:10.37,2013-02-02 02:21:00,
2013-02-01 18:22:00,36.7,24.9,29.97,NNE,22,0.0,0.0,62,0.00,CLR,,0.00,WeatherDisplay:10.37,2013-02-02 02:22:00,
2013-02-01 18:24:00,36.5,24.7,29.97,NNE,22,0.0,0.0,62,0.00,CLR,,0.00,WeatherDisplay:10.37,2013-02-02 02:24:00,
2013-02-01 18:25:00,36.5,24.7,29.97,NNE,22,0.0,0.0,62,0.00,CLR,,0.00,WeatherDisplay:10.37,2013-02-02 02:25:00,
2013-02-01 18:26:00,36.3,24.9,29.97,NNE,22,0.0,0.0,63,0.00,CLR,,0.00,WeatherDisplay:10.37,2013-02-02 02:26:00,
2013-02-01 18:27:00,36.3,24.9,29.97,NNE,22,0.0,0.0,63,0.00,CLR,,0.00,WeatherDisplay:10.37,2013-02-02 02:27:00,
2013-02-01 18:29:00,36.0,24.6,29.97,NNE,22,0.0,0.0,63,0.00,CLR,,0.00,WeatherDisplay:10.37,2013-02-02 02:29:00,
2013-02-01 18:30:00,36.0,24.6,29.97,NNE,22,0.0,0.0,63,0.00,CLR,,0.00,WeatherDisplay:10.37,2013-02-02 02:30:00,
2013-02-01 18:31:00,36.0,24.6,29.97,NNE,22,0.0,0.0,63,0.00,CLR,,0.00,WeatherDisplay:10.37,2013-02-02 02:31:00,
2013-02-01 18:32:00,36.0,25.0,29.97,NNE,22,0.0,0.0,64,0.00,CLR,,0.00,WeatherDisplay:10.37,2013-02-02 02:32:00,
2013-02-01 18:34:00,36.0,25.0,29.97,NNE,22,0.0,0.0,64,0.00,CLR,,0.00,WeatherDisplay:10.37,2013-02-02 02:34:00,
2013-02-01 18:35:00,36.0,25.0,29.97,NNE,22,0.0,0.0,64,0.00,CLR,,0.00,WeatherDisplay:10.37,2013-02-02 02:35:00,
2013-02-01 18:37:00,35.8,24.8,29.97,NNE,22,0.0,0.0,64,0.00,CLR,,0.00,WeatherDisplay:10.37,2013-02-02 02:37:00,
2013-02-01 18:39:00,35.4,24.8,29.97,NNE,22,0.0,0.0,65,0.00,CLR,,0.00,WeatherDisplay:10.37,2013-02-02 02:39:00,
2013-02-01 18:40:00,35.4,24.8,29.97,NNE,22,0.0,0.0,65,0.00,CLR,,0.00,WeatherDisplay:10.37,2013-02-02 02:40:00,
2013-02-01 18:42:00,35.4,24.8,29.97,NE,45,0.0,0.0,65,0.00,CLR,,0.00,WeatherDisplay:10.37,2013-02-02 02:42:00,
2013-02-01 18:45:00,35.2,25.0,29.98,NNE,22,0.0,0.0,66,0.00,CLR,,0.00,WeatherDisplay:10.37,2013-02-02 02:45:00,
2013-02-01 18:47:00,35.2,25.0,29.98,NNE,22,0.0,0.0,66,0.00,CLR,,0.00,WeatherDisplay:10.37,2013-02-02 02:47:00,
2013-02-01 18:50:00,35.4,25.5,29.98,NNW,338,0.0,0.0,67,0.00,CLR,,0.00,WeatherDisplay:10.37,2013-02-02 02:50:00,
2013-02-01 18:51:00,35.4,25.5,29.98,NNW,338,0.0,0.0,67,0.00,CLR,,0.00,WeatherDisplay:10.37,2013-02-02 02:51:00,
2013-02-01 18:52:00,35.4,25.5,29.98,NNE,22,0.0,0.0,67,0.00,CLR,,0.00,WeatherDisplay:10.37,2013-02-02 02:52:00,
2013-02-01 18:53:00,35.4,25.5,29.98,NNE,22,0.0,0.0,67,0.00,CLR,,0.00,WeatherDisplay:10.37,2013-02-02 02:53:00,
2013-02-01 18:55:00,35.6,25.7,29.98,North,0,0.0,0.0,67,0.00,CLR,,0.00,WeatherDisplay:10.37,2013-02-02 02:55:00,
2013-02-01 18:56:00,35.6,25.7,29.98,West,270,0.0,0.0,67,0.00,CLR,,0.00,WeatherDisplay:10.37,2013-02-02 02:56:00,
2013-02-01 18:58:00,35.8,26.2,29.98,ENE,68,0.0,0.0,68,0.00,CLR,,0.00,WeatherDisplay:10.37,2013-02-02 02:58:00,
2013-02-01 19:00:00,35.8,26.2,29.98,NNE,22,0.0,0.0,68,0.00,CLR,,0.00,WeatherDisplay:10.37,2013-02-02 03:00:00,
2013-02-01 19:01:00,35.8,26.2,29.98,NNE,22,0.0,0.0,68,0.00,CLR,,0.00,WeatherDisplay:10.37,2013-02-02 03:01:00,
2013-02-01 19:03:00,35.4,25.9,29.98,NNE,22,0.0,0.0,68,0.00,CLR,,0.00,WeatherDisplay:10.37,2013-02-02 03:03:00,
2013-02-01 19:05:00,35.2,25.7,29.98,SE,135,0.0,0.0,68,0.00,CLR,,0.00,WeatherDisplay:10.37,2013-02-02 03:05:00,
2013-02-01 19:06:00,35.1,25.6,29.98,SSE,158,0.0,0.0,68,0.00,CLR,,0.00,WeatherDisplay:10.37,2013-02-02 03:06:00,
2013-02-01 19:08:00,34.9,25.4,29.98,SE,135,0.0,0.0,68,0.00,CLR,,0.00,WeatherDisplay:10.37,2013-02-02 03:08:00,
2013-02-01 19:10:00,34.7,25.2,29.98,SE,135,0.0,0.0,68,0.00,CLR,,0.00,WeatherDisplay:10.37,2013-02-02 03:10:00,
2013-02-01 19:11:00,34.5,25.4,29.98,SE,135,0.0,0.0,69,0.00,CLR,,0.00,WeatherDisplay:10.37,2013-02-02 03:11:00,
2013-02-01 19:13:00,34.5,25.4,29.98,SE,135,0.0,0.0,69,0.00,CLR,,0.00,WeatherDisplay:10.37,2013-02-02 03:13:00,
2013-02-01 19:16:00,34.2,25.0,29.98,ESE,112,0.0,0.0,69,0.00,CLR,,0.00,WeatherDisplay:10.37,2013-02-02 03:16:00,
2013-02-01 19:17:00,34.2,25.0,29.98,ESE,112,0.0,0.0,69,0.00,CLR,,0.00,WeatherDisplay:10.37,2013-02-02 03:17:00,
2013-02-01 19:18:00,34.2,25.0,29.98,SSE,158,0.0,0.0,69,0.00,CLR,,0.00,WeatherDisplay:10.37,2013-02-02 03:18:00,
2013-02-01 19:21:00,34.0,24.9,29.98,SE,135,0.0,0.0,69,0.00,CLR,,0.00,WeatherDisplay:10.37,2013-02-02 03:21:00,
2013-02-01 19:22:00,34.0,24.9,29.98,SE,135,0.0,0.0,69,0.00,CLR,,0.00,WeatherDisplay:10.37,2013-02-02 03:22:00,
2013-02-01 19:23:00,34.0,24.9,29.98,SE,135,0.0,0.0,69,0.00,CLR,,0.00,WeatherDisplay:10.37,2013-02-02 03:23:00,
2013-02-01 19:24:00,34.0,24.9,29.99,SSE,158,0.0,0.0,69,0.00,CLR,,0.00,WeatherDisplay:10.37,2013-02-02 03:24:00,
2013-02-01 19:26:00,34.0,24.9,29.99,SE,135,0.0,0.0,69,0.00,CLR,,0.00,WeatherDisplay:10.37,2013-02-02 03:26:00,
2013-02-01 19:27:00,34.0,24.9,29.99,SE,135,0.0,0.0,69,0.00,CLR,,0.00,WeatherDisplay:10.37,2013-02-02 03:27:00,
2013-02-01 19:28:00,34.0,25.2,29.99,South,180,0.0,0.0,70,0.00,CLR,,0.00,WeatherDisplay:10.37,2013-02-02 03:28:00,
2013-02-01 19:29:00,34.0,25.2,29.99,South,180,0.0,0.0,70,0.00,CLR,,0.00,WeatherDisplay:10.37,2013-02-02 03:29:00,
2013-02-01 19:31:00,33.8,25.0,29.99,ESE,112,0.0,0.0,70,0.00,CLR,,0.00,WeatherDisplay:10.37,2013-02-02 03:31:00,
2013-02-01 19:32:00,33.6,24.9,29.99,SSE,158,0.0,0.0,70,0.00,CLR,,0.00,WeatherDisplay:10.37,2013-02-02 03:32:00,
2013-02-01 19:33:00,33.6,24.9,29.99,East,90,0.0,0.0,70,0.00,CLR,,0.00,WeatherDisplay:10.37,2013-02-02 03:33:00,
2013-02-01 19:34:00,33.6,24.9,29.99,East,90,0.0,0.0,70,0.00,CLR,,0.00,WeatherDisplay:10.37,2013-02-02 03:34:00,
2013-02-01 19:36:00,33.6,25.2,29.99,SSE,158,0.0,0.0,71,0.00,CLR,,0.00,WeatherDisplay:10.37,2013-02-02 03:36:00,
2013-02-01 19:38:00,33.4,25.0,29.99,ESE,112,0.0,0.0,71,0.00,CLR,,0.00,WeatherDisplay:10.37,2013-02-02 03:38:00,
2013-02-01 19:39:00,33.1,24.7,29.99,ESE,112,0.0,0.0,71,0.00,CLR,,0.00,WeatherDisplay:10.37,2013-02-02 03:39:00,
2013-02-01 19:41:00,33.1,24.7,29.99,ENE,68,0.0,0.0,71,0.00,CLR,,0.00,WeatherDisplay:10.37,2013-02-02 03:41:00,
2013-02-01 19:43:00,33.1,24.7,29.99,SE,135,0.0,0.0,71,0.00,CLR,,0.00,WeatherDisplay:10.37,2013-02-02 03:43:00,
2013-02-01 19:44:00,33.1,24.7,29.99,SE,135,0.0,0.0,71,0.00,CLR,,0.00,WeatherDisplay:10.37,2013-02-02 03:44:00,
2013-02-01 19:47:00,32.9,24.5,29.99,NW,315,0.0,0.0,71,0.00,CLR,,0.00,WeatherDisplay:10.37,2013-02-02 03:47:00,
2013-02-01 19:48:00,32.7,24.3,29.99,NNW,338,0.0,0.0,71,0.00,CLR,,0.00,WeatherDisplay:10.37,2013-02-02 03:48:00,
2013-02-01 19:49:00,32.7,24.3,29.99,NNW,338,0.0,0.0,71,0.00,CLR,,0.00,WeatherDisplay:10.37,2013-02-02 03:49:00,
2013-02-01 19:52:00,32.2,24.2,29.99,NW,315,0.0,0.0,72,0.00,CLR,,0.00,WeatherDisplay:10.37,2013-02-02 03:52:00,
2013-02-01 19:53:00,32.2,24.2,29.99,NW,315,0.0,0.0,72,0.00,CLR,,0.00,WeatherDisplay:10.37,2013-02-02 03:53:00,
2013-02-01 19:54:00,32.0,23.7,29.99,NNE,22,0.0,0.0,71,0.00,CLR,,0.00,WeatherDisplay:10.37,2013-02-02 03:54:00,
2013-02-01 19:57:00,31.6,23.3,29.99,NNE,22,0.0,0.0,71,0.00,CLR,,0.00,WeatherDisplay:10.37,2013-02-02 03:57:00,
2013-02-01 19:58:00,31.3,23.0,29.99,ENE,68,0.0,0.0,71,0.00,CLR,,0.00,WeatherDisplay:10.37,2013-02-02 03:58:00,
2013-02-01 19:59:00,31.3,23.0,29.99,ENE,68,0.0,0.0,71,0.00,CLR,,0.00,WeatherDisplay:10.37,2013-02-02 03:59:00,
2013-02-01 20:02:00,31.1,22.8,29.99,NE,45,0.0,0.0,71,0.00,CLR,,0.00,WeatherDisplay:10.37,2013-02-02 04:02:00,
2013-02-01 20:03:00,31.1,23.1,30.00,NE,45,0.0,0.0,72,0.00,CLR,,0.00,WeatherDisplay:10.37,2013-02-02 04:03:00,
2013-02-01 20:04:00,31.1,23.1,30.00,NE,45,0.0,0.0,72,0.00,CLR,,0.00,WeatherDisplay:10.37,2013-02-02 04:04:00,
2013-02-01 20:05:00,31.1,23.1,30.00,NE,40,0.0,0.0,72,0.00,CLR,CLR,0.00,WeatherDisplay:10.37,2013-02-02 04:05:00,
2013-02-01 20:07:00,30.9,23.0,30.00,NNW,338,0.0,0.0,72,0.00,CLR,,0.00,WeatherDisplay:10.37,2013-02-02 04:07:00,
2013-02-01 20:08:00,30.6,22.6,30.00,NW,315,0.0,0.0,72,0.00,CLR,,0.00,WeatherDisplay:10.37,2013-02-02 04:08:00,
2013-02-01 20:09:00,30.4,22.4,30.00,NNE,22,0.0,0.0,72,0.00,CLR,,0.00,WeatherDisplay:10.37,2013-02-02 04:09:00,
2013-02-01 20:10:00,30.4,22.4,30.00,NNE,22,0.0,0.0,72,0.00,CLR,,0.00,WeatherDisplay:10.37,2013-02-02 04:10:00,
2013-02-01 20:12:00,30.2,22.6,30.00,NNW,338,0.0,0.0,73,0.00,CLR,,0.00,WeatherDisplay:10.37,2013-02-02 04:12:00,
2013-02-01 20:14:00,30.0,22.4,30.00,NNE,22,0.0,0.0,73,0.00,CLR,,0.00,WeatherDisplay:10.37,2013-02-02 04:14:00,
2013-02-01 20:15:00,30.0,22.4,30.00,NNE,22,0.0,0.0,73,0.00,CLR,,0.00,WeatherDisplay:10.37,2013-02-02 04:15:00,
2013-02-01 20:17:00,30.0,22.4,30.00,NNE,22,0.0,0.0,73,0.00,CLR,,0.00,WeatherDisplay:10.37,2013-02-02 04:17:00,
2013-02-01 20:19:00,29.8,22.2,30.00,ENE,68,0.0,0.0,73,0.00,CLR,,0.00,WeatherDisplay:10.37,2013-02-02 04:19:00,
2013-02-01 20:20:00,29.7,22.1,30.00,ENE,68,0.0,0.0,73,0.00,CLR,,0.00,WeatherDisplay:10.37,2013-02-02 04:20:00,
2013-02-01 20:23:00,29.7,22.1,30.00,ENE,68,0.0,0.0,73,0.00,CLR,,0.00,WeatherDisplay:10.37,2013-02-02 04:23:00,
2013-02-01 20:24:00,29.7,22.1,30.00,SE,135,0.0,0.0,73,0.00,CLR,,0.00,WeatherDisplay:10.37,2013-02-02 04:24:00,
2013-02-01 20:25:00,29.7,22.1,30.00,SE,135,0.0,0.0,73,0.00,CLR,,0.00,WeatherDisplay:10.37,2013-02-02 04:25:00,
2013-02-01 20:28:00,29.7,22.1,30.00,NE,45,0.0,0.0,73,0.00,CLR,,0.00,WeatherDisplay:10.37,2013-02-02 04:28:00,
2013-02-01 20:29:00,29.5,21.9,30.00,NNE,22,0.0,0.0,73,0.00,CLR,,0.00,WeatherDisplay:10.37,2013-02-02 04:29:00,
2013-02-01 20:30:00,29.5,21.9,30.00,NNE,22,0.0,0.0,73,0.00,CLR,,0.00,WeatherDisplay:10.37,2013-02-02 04:30:00,
2013-02-01 20:33:00,29.3,22.0,30.00,West,270,0.0,1.1,74,0.00,CLR,,0.00,WeatherDisplay:10.37,2013-02-02 04:33:00,
2013-02-01 20:34:00,29.3,22.4,30.00,NNE,22,0.0,1.1,75,0.00,CLR,,0.00,WeatherDisplay:10.37,2013-02-02 04:34:00,
2013-02-01 20:35:00,29.1,22.2,30.00,NE,45,0.0,0.0,75,0.00,CLR,,0.00,WeatherDisplay:10.37,2013-02-02 04:35:00,
2013-02-01 20:36:00,29.1,22.2,30.00,NE,45,0.0,0.0,75,0.00,CLR,,0.00,WeatherDisplay:10.37,2013-02-02 04:36:00,
2013-02-01 20:38:00,28.9,22.0,30.00,NNW,338,0.0,0.0,75,0.00,CLR,,0.00,WeatherDisplay:10.37,2013-02-02 04:38:00,
2013-02-01 20:39:00,28.9,22.0,30.00,NW,315,0.0,0.0,75,0.00,CLR,,0.00,WeatherDisplay:10.37,2013-02-02 04:39:00,
2013-02-01 20:41:00,28.9,22.0,30.00,NW,315,0.0,0.0,75,0.00,CLR,,0.00,WeatherDisplay:10.37,2013-02-02 04:41:00,
2013-02-01 20:43:00,28.9,22.3,30.00,ENE,68,0.0,0.0,76,0.00,CLR,,0.00,WeatherDisplay:10.37,2013-02-02 04:43:00,
2013-02-01 20:44:00,28.8,22.1,30.00,NNW,338,0.0,0.0,76,0.00,CLR,,0.00,WeatherDisplay:10.37,2013-02-02 04:44:00,
2013-02-01 20:46:00,28.8,22.1,30.00,North,0,0.0,0.0,76,0.00,CLR,,0.00,WeatherDisplay:10.37,2013-02-02 04:46:00,
2013-02-01 20:48:00,28.8,22.1,30.00,NNW,338,0.0,0.0,76,0.00,CLR,,0.00,WeatherDisplay:10.37,2013-02-02 04:48:00,
2013-02-01 20:50:00,28.6,22.0,30.00,NNE,22,0.0,0.0,76,0.00,CLR,,0.00,WeatherDisplay:10.37,2013-02-02 04:50:00,
2013-02-01 20:51:00,28.6,22.0,30.00,NNE,22,0.0,0.0,76,0.00,CLR,,0.00,WeatherDisplay:10.37,2013-02-02 04:51:00,
2013-02-01 20:53:00,28.4,21.8,30.00,NNE,22,0.0,0.0,76,0.00,CLR,,0.00,WeatherDisplay:10.37,2013-02-02 04:53:00,
2013-02-01 20:55:00,28.4,21.8,30.00,North,11,0.0,0.0,76,0.00,CLR,CLR,0.00,WeatherDisplay:10.37,2013-02-02 04:55:00,
2013-02-01 20:56:00,28.4,21.8,30.00,NNE,22,0.0,0.0,76,0.00,CLR,,0.00,WeatherDisplay:10.37,2013-02-02 04:56:00,
2013-02-01 20:58:00,28.4,21.8,30.00,NE,45,0.0,0.0,76,0.00,CLR,,0.00,WeatherDisplay:10.37,2013-02-02 04:58:00,
2013-02-01 21:00:00,28.3,21.7,30.00,NNE,28,0.0,0.0,76,0.00,CLR,CLR,0.00,WeatherDisplay:10.37,2013-02-02 05:00:00,
2013-02-01 21:01:00,28.2,21.6,30.00,NNE,22,0.0,0.0,76,0.00,CLR,,0.00,WeatherDisplay:10.37,2013-02-02 05:01:00,
2013-02-01 21:05:00,28.0,21.4,30.01,NE,45,0.0,0.0,76,0.00,CLR,,0.00,WeatherDisplay:10.37,2013-02-02 05:05:00,
2013-02-01 21:06:00,28.0,21.8,30.01,North,0,0.0,0.0,77,0.00,CLR,,0.00,WeatherDisplay:10.37,2013-02-02 05:06:00,
2013-02-01 21:10:00,27.7,21.4,30.01,ENE,68,0.0,0.0,77,0.00,CLR,,0.00,WeatherDisplay:10.37,2013-02-02 05:10:00,
2013-02-01 21:11:00,27.7,21.4,30.01,ENE,68,0.0,0.0,77,0.00,CLR,,0.00,WeatherDisplay:10.37,2013-02-02 05:11:00,
2013-02-01 21:12:00,27.5,20.9,30.01,ESE,112,0.0,0.0,76,0.00,CLR,,0.00,WeatherDisplay:10.37,2013-02-02 05:12:00,
2013-02-01 21:15:00,27.5,20.9,30.01,NE,45,0.0,0.0,76,0.00,CLR,,0.00,WeatherDisplay:10.37,2013-02-02 05:15:00,
2013-02-01 21:16:00,27.5,20.9,30.01,NE,45,0.0,0.0,76,0.00,CLR,,0.00,WeatherDisplay:10.37,2013-02-02 05:16:00,
2013-02-01 21:17:00,27.5,20.9,30.01,NE,45,0.0,0.0,76,0.00,CLR,,0.00,WeatherDisplay:10.37,2013-02-02 05:17:00,
2013-02-01 21:20:00,27.7,21.7,30.01,WNW,292,0.0,0.0,78,0.00,CLR,,0.00,WeatherDisplay:10.37,2013-02-02 05:20:00,
2013-02-01 21:21:00,27.7,21.7,30.01,WNW,292,0.0,0.0,78,0.00,CLR,,0.00,WeatherDisplay:10.37,2013-02-02 05:21:00,
2013-02-01 21:22:00,27.7,21.7,30.01,North,0,0.0,0.0,78,0.00,CLR,,0.00,WeatherDisplay:10.37,2013-02-02 05:22:00,
2013-02-01 21:26:00,27.5,21.8,30.02,SSE,158,0.0,0.0,79,0.00,CLR,,0.00,WeatherDisplay:10.37,2013-02-02 05:26:00,
2013-02-01 21:27:00,27.5,21.8,30.02,SSE,158,0.0,0.0,79,0.00,CLR,,0.00,WeatherDisplay:10.37,2013-02-02 05:27:00,
2013-02-01 21:31:00,27.7,22.0,30.02,NW,315,0.0,0.0,79,0.00,CLR,,0.00,WeatherDisplay:10.37,2013-02-02 05:31:00,
2013-02-01 21:32:00,27.7,22.3,30.02,East,90,0.0,0.0,80,0.00,CLR,,0.00,WeatherDisplay:10.37,2013-02-02 05:32:00,
2013-02-01 21:36:00,27.7,22.6,30.02,NW,315,0.0,0.0,81,0.00,CLR,,0.00,WeatherDisplay:10.37,2013-02-02 05:36:00,
2013-02-01 21:37:00,27.5,22.4,30.02,ENE,68,0.0,0.0,81,0.00,CLR,,0.00,WeatherDisplay:10.37,2013-02-02 05:37:00,
2013-02-01 21:41:00,27.5,22.4,30.02,NNE,22,0.0,0.0,81,0.00,CLR,,0.00,WeatherDisplay:10.37,2013-02-02 05:41:00,
2013-02-01 21:42:00,27.3,22.0,30.02,NNW,338,0.0,0.0,80,0.00,CLR,,0.00,WeatherDisplay:10.37,2013-02-02 05:42:00,
2013-02-01 21:43:00,27.3,22.0,30.02,NNW,338,0.0,0.0,80,0.00,CLR,,0.00,WeatherDisplay:10.37,2013-02-02 05:43:00,
2013-02-01 21:46:00,27.1,22.1,30.01,East,90,0.0,0.0,81,0.00,CLR,,0.00,WeatherDisplay:10.37,2013-02-02 05:46:00,
2013-02-01 21:48:00,27.1,22.1,30.01,WNW,292,0.0,0.0,81,0.00,CLR,,0.00,WeatherDisplay:10.37,2013-02-02 05:48:00,
2013-02-01 21:51:00,27.1,22.4,30.01,NW,315,0.0,0.0,82,0.00,CLR,,0.00,WeatherDisplay:10.37,2013-02-02 05:51:00,
2013-02-01 21:53:00,27.0,22.2,30.01,NNW,338,0.0,0.0,82,0.00,CLR,,0.00,WeatherDisplay:10.37,2013-02-02 05:53:00,
2013-02-01 21:56:00,27.0,22.2,30.01,NNE,22,0.0,0.0,82,0.00,CLR,,0.00,WeatherDisplay:10.37,2013-02-02 05:56:00,
2013-02-01 21:58:00,27.0,22.2,30.01,ENE,68,0.0,0.0,82,0.00,CLR,,0.00,WeatherDisplay:10.37,2013-02-02 05:58:00,
2013-02-01 22:01:00,27.0,22.5,30.01,North,0,0.0,0.0,83,0.00,CLR,,0.00,WeatherDisplay:10.37,2013-02-02 06:01:00,
2013-02-01 22:02:00,27.0,22.5,30.01,NNE,22,0.0,0.0,83,0.00,CLR,,0.00,WeatherDisplay:10.37,2013-02-02 06:02:00,
2013-02-01 22:03:00,27.0,22.5,30.01,NNE,22,0.0,0.0,83,0.00,CLR,,0.00,WeatherDisplay:10.37,2013-02-02 06:03:00,
2013-02-01 22:04:00,27.0,22.5,30.02,NW,315,0.0,0.0,83,0.00,CLR,,0.00,WeatherDisplay:10.37,2013-02-02 06:04:00,
2013-02-01 22:06:00,27.0,22.8,30.02,NW,315,0.0,0.0,84,0.00,CLR,,0.00,WeatherDisplay:10.37,2013-02-02 06:06:00,
2013-02-01 22:08:00,26.8,22.6,30.02,NNW,338,0.0,0.0,84,0.00,CLR,,0.00,WeatherDisplay:10.37,2013-02-02 06:08:00,
2013-02-01 22:09:00,26.8,22.6,30.02,NNW,338,0.0,0.0,84,0.00,CLR,,0.00,WeatherDisplay:10.37,2013-02-02 06:09:00,
2013-02-01 22:12:00,26.8,22.6,30.02,NW,315,0.0,0.0,84,0.00,CLR,,0.00,WeatherDisplay:10.37,2013-02-02 06:12:00,
2013-02-01 22:13:00,26.6,22.4,30.02,NW,315,0.0,0.0,84,0.00,CLR,,0.00,WeatherDisplay:10.37,2013-02-02 06:13:00,
2013-02-01 22:14:00,26.6,22.4,30.02,WSW,248,0.0,0.0,84,0.00,CLR,,0.00,WeatherDisplay:10.37,2013-02-02 06:14:00,
2013-02-01 22:17:00,26.6,22.4,30.02,ENE,68,0.0,0.0,84,0.00,CLR,,0.00,WeatherDisplay:10.37,2013-02-02 06:17:00,
2013-02-01 22:18:00,26.4,22.2,30.02,NNE,22,0.0,0.0,84,0.00,CLR,,0.00,WeatherDisplay:10.37,2013-02-02 06:18:00,
2013-02-01 22:19:00,26.2,22.1,30.02,East,90,0.0,0.0,84,0.00,CLR,,0.00,WeatherDisplay:10.37,2013-02-02 06:19:00,
2013-02-01 22:22:00,26.4,22.2,30.02,NNE,22,0.0,0.0,84,0.00,CLR,,0.00,WeatherDisplay:10.37,2013-02-02 06:22:00,
2013-02-01 22:23:00,26.4,22.2,30.02,NNE,22,0.0,0.0,84,0.00,CLR,,0.00,WeatherDisplay:10.37,2013-02-02 06:23:00,
2013-02-01 22:25:00,26.4,22.2,30.02,SE,135,0.0,0.0,84,0.00,CLR,,0.00,WeatherDisplay:10.37,2013-02-02 06:25:00,
2013-02-01 22:27:00,26.4,22.2,30.02,NNW,338,0.0,0.0,84,0.00,CLR,,0.00,WeatherDisplay:10.37,2013-02-02 06:27:00,
2013-02-01 22:28:00,26.4,22.5,30.02,WNW,292,0.0,0.0,85,0.00,CLR,,0.00,WeatherDisplay:10.37,2013-02-02 06:28:00,
2013-02-01 22:29:00,26.4,22.5,30.02,WNW,292,0.0,0.0,85,0.00,CLR,,0.00,WeatherDisplay:10.37,2013-02-02 06:29:00,
2013-02-01 22:30:00,26.2,22.3,30.02,ENE,68,0.0,0.0,85,0.00,CLR,,0.00,WeatherDisplay:10.37,2013-02-02 06:30:00,
2013-02-01 22:32:00,26.2,22.3,30.02,NE,45,0.0,0.0,85,0.00,CLR,,0.00,WeatherDisplay:10.37,2013-02-02 06:32:00,
2013-02-01 22:34:00,26.2,22.3,30.02,WNW,292,0.0,0.0,85,0.00,CLR,,0.00,WeatherDisplay:10.37,2013-02-02 06:34:00,
2013-02-01 22:35:00,26.2,22.3,30.02,WNW,292,0.0,0.0,85,0.00,CLR,,0.00,WeatherDisplay:10.37,2013-02-02 06:35:00,
2013-02-01 22:37:00,26.2,22.6,30.02,NNE,22,0.0,0.0,86,0.00,CLR,,0.00,WeatherDisplay:10.37,2013-02-02 06:37:00,
2013-02-01 22:39:00,26.2,22.6,30.02,NNE,22,0.0,0.0,86,0.00,CLR,,0.00,WeatherDisplay:10.37,2013-02-02 06:39:00,
2013-02-01 22:40:00,26.2,22.6,30.02,SSE,158,0.0,0.0,86,0.00,CLR,,0.00,WeatherDisplay:10.37,2013-02-02 06:40:00,
2013-02-01 22:42:00,26.2,22.6,30.02,WNW,292,0.0,0.0,86,0.00,CLR,,0.00,WeatherDisplay:10.37,2013-02-02 06:42:00,
2013-02-01 22:44:00,26.1,22.4,30.02,NNE,22,0.0,0.0,86,0.00,CLR,,0.00,WeatherDisplay:10.37,2013-02-02 06:44:00,
2013-02-01 22:45:00,25.9,22.3,30.02,ESE,112,0.0,0.0,86,0.00,CLR,,0.00,WeatherDisplay:10.37,2013-02-02 06:45:00,
2013-02-01 22:48:00,25.9,22.3,30.02,NNE,22,0.0,0.0,86,0.00,CLR,,0.00,WeatherDisplay:10.37,2013-02-02 06:48:00,
2013-02-01 22:49:00,25.9,22.3,30.02,NNE,22,0.0,0.0,86,0.00,CLR,,0.00,WeatherDisplay:10.37,2013-02-02 06:49:00,
2013-02-01 22:50:00,25.9,22.3,30.02,NNE,22,0.0,0.0,86,0.00,CLR,,0.00,WeatherDisplay:10.37,2013-02-02 06:50:00,
2013-02-01 22:53:00,26.1,22.7,30.02,NW,315,0.0,0.0,87,0.00,CLR,,0.00,WeatherDisplay:10.37,2013-02-02 06:53:00,
2013-02-01 22:54:00,25.9,22.5,30.02,NNW,338,0.0,0.0,87,0.00,CLR,,0.00,WeatherDisplay:10.37,2013-02-02 06:54:00,
2013-02-01 22:55:00,25.9,22.5,30.02,North,0,0.0,0.0,87,0.00,CLR,,0.00,WeatherDisplay:10.37,2013-02-02 06:55:00,
2013-02-01 22:58:00,25.9,22.5,30.02,North,0,0.0,0.0,87,0.00,CLR,,0.00,WeatherDisplay:10.37,2013-02-02 06:58:00,
2013-02-01 22:59:00,25.9,22.5,30.02,North,0,0.0,0.0,87,0.00,CLR,,0.00,WeatherDisplay:10.37,2013-02-02 06:59:00,
2013-02-01 23:01:00,25.9,22.5,30.02,NNW,338,0.0,0.0,87,0.00,CLR,,0.00,WeatherDisplay:10.37,2013-02-02 07:01:00,
2013-02-01 23:03:00,25.9,22.8,30.03,SSE,158,0.0,0.0,88,0.00,CLR,,0.00,WeatherDisplay:10.37,2013-02-02 07:03:00,
2013-02-01 23:04:00,25.9,22.8,30.03,SSE,158,0.0,0.0,88,0.00,CLR,,0.00,WeatherDisplay:10.37,2013-02-02 07:04:00,
2013-02-01 23:06:00,25.9,22.8,30.03,NW,315,0.0,0.0,88,0.00,CLR,,0.00,WeatherDisplay:10.37,2013-02-02 07:06:00,
2013-02-01 23:08:00,25.9,22.8,30.03,NW,315,0.0,0.0,88,0.00,CLR,,0.00,WeatherDisplay:10.37,2013-02-02 07:08:00,
2013-02-01 23:09:00,25.9,22.8,30.03,NNW,338,0.0,0.0,88,0.00,CLR,,0.00,WeatherDisplay:10.37,2013-02-02 07:09:00,
2013-02-01 23:10:00,25.9,22.8,30.03,NNW,338,0.0,0.0,88,0.00,CLR,,0.00,WeatherDisplay:10.37,2013-02-02 07:10:00,
2013-02-01 23:11:00,25.9,22.8,30.03,NNW,338,0.0,0.0,88,0.00,CLR,,0.00,WeatherDisplay:10.37,2013-02-02 07:11:00,
2013-02-01 23:13:00,25.5,22.5,30.03,NNE,22,0.0,0.0,88,0.00,CLR,,0.00,WeatherDisplay:10.37,2013-02-02 07:13:00,
2013-02-01 23:14:00,25.5,22.5,30.03,NNE,22,0.0,0.0,88,0.00,CLR,,0.00,WeatherDisplay:10.37,2013-02-02 07:14:00,
2013-02-01 23:15:00,25.5,22.5,30.03,NNE,22,0.0,0.0,88,0.00,CLR,,0.00,WeatherDisplay:10.37,2013-02-02 07:15:00,
2013-02-01 23:16:00,25.5,22.5,30.03,NW,315,0.0,0.0,88,0.00,CLR,,0.00,WeatherDisplay:10.37,2013-02-02 07:16:00,
2013-02-01 23:19:00,25.5,22.5,30.03,NNW,338,0.0,0.0,88,0.00,CLR,,0.00,WeatherDisplay:10.37,2013-02-02 07:19:00,
2013-02-01 23:20:00,25.5,22.5,30.03,WSW,248,0.0,0.0,88,0.00,CLR,,0.00,WeatherDisplay:10.37,2013-02-02 07:20:00,
2013-02-01 23:21:00,25.5,22.5,30.03,WSW,248,0.0,0.0,88,0.00,CLR,,0.00,WeatherDisplay:10.37,2013-02-02 07:21:00,
2013-02-01 23:24:00,25.3,22.3,30.03,South,180,0.0,0.0,88,0.00,CLR,,0.00,WeatherDisplay:10.37,2013-02-02 07:24:00,
2013-02-01 23:25:00,25.3,22.3,30.03,South,180,0.0,0.0,88,0.00,CLR,,0.00,WeatherDisplay:10.37,2013-02-02 07:25:00,
2013-02-01 23:26:00,25.3,22.3,30.03,NNW,338,0.0,0.0,88,0.00,CLR,,0.00,WeatherDisplay:10.37,2013-02-02 07:26:00,
2013-02-01 23:29:00,25.3,22.3,30.03,NNE,22,0.0,0.0,88,0.00,CLR,,0.00,WeatherDisplay:10.37,2013-02-02 07:29:00,
2013-02-01 23:30:00,25.5,22.5,30.03,NNE,22,0.1,1.1,88,0.00,CLR,,0.00,WeatherDisplay:10.37,2013-02-02 07:30:00,
2013-02-01 23:31:00,25.3,22.3,30.03,SSE,158,0.1,1.1,88,0.00,CLR,,0.00,WeatherDisplay:10.37,2013-02-02 07:31:00,
2013-02-01 23:34:00,25.3,22.6,30.03,NW,315,0.2,0.0,89,0.00,CLR,,0.00,WeatherDisplay:10.37,2013-02-02 07:34:00,
2013-02-01 23:35:00,25.3,22.6,30.03,NW,315,0.2,0.0,89,0.00,CLR,,0.00,WeatherDisplay:10.37,2013-02-02 07:35:00,
2013-02-01 23:36:00,25.3,22.6,30.03,ENE,68,0.2,0.0,89,0.00,CLR,,0.00,WeatherDisplay:10.37,2013-02-02 07:36:00,
2013-02-01 23:39:00,25.3,22.6,30.03,ENE,68,0.2,0.0,89,0.00,CLR,,0.00,WeatherDisplay:10.37,2013-02-02 07:39:00,
2013-02-01 23:40:00,25.3,22.6,30.03,East,90,0.1,0.0,89,0.00,CLR,,0.00,WeatherDisplay:10.37,2013-02-02 07:40:00,
2013-02-01 23:42:00,25.2,22.4,30.03,NNW,338,0.1,0.0,89,0.00,CLR,,0.00,WeatherDisplay:10.37,2013-02-02 07:42:00,